<?xml version="1.0" encoding="UTF-8" standalone="no" ?>
<gpx xmlns="http://www.topografix.com/GPX/1/1" xmlns:xsi="http://www.w3.org/2001/XMLSchema-instance" xsi:schemaLocation="http://www.topografix.com/GPX/1/1 http://www.topografix.com/GPX/1/1/gpx.xsd" version="1.1" creator="VisuGPX - https://www.visugpx.com">
  <metadata>
    <name>Départ au cirque de la Glere.</name>
  </metadata>
  <trk>
    <name><![CDATA[Randonnée]]></name>
    <trkseg>
      <trkpt lat="42.72086" lon="0.655">
        <ele>1392.2998</ele>
        <time>2026-07-04T11:25:05+02:00</time>
      </trkpt>
      <trkpt lat="42.72083" lon="0.65496">
        <ele>1390.7002</ele>
        <time>2026-07-04T11:25:33+02:00</time>
      </trkpt>
      <trkpt lat="42.72085" lon="0.65496">
        <ele>1391.2998</ele>
        <time>2026-07-04T11:26:11+02:00</time>
      </trkpt>
      <trkpt lat="42.72079" lon="0.65495">
        <ele>1390.7002</ele>
        <time>2026-07-04T11:27:00+02:00</time>
      </trkpt>
      <trkpt lat="42.72065" lon="0.65486">
        <ele>1389.2998</ele>
        <time>2026-07-04T11:27:18+02:00</time>
      </trkpt>
      <trkpt lat="42.72061" lon="0.65477">
        <ele>1388.7998</ele>
        <time>2026-07-04T11:27:28+02:00</time>
      </trkpt>
      <trkpt lat="42.72043" lon="0.65454">
        <ele>1388.7002</ele>
        <time>2026-07-04T11:27:50+02:00</time>
      </trkpt>
      <trkpt lat="42.72041" lon="0.65452">
        <ele>1388.7002</ele>
        <time>2026-07-04T11:28:13+02:00</time>
      </trkpt>
      <trkpt lat="42.72039" lon="0.65457">
        <ele>1389.2998</ele>
        <time>2026-07-04T11:30:39+02:00</time>
      </trkpt>
      <trkpt lat="42.72039" lon="0.65451">
        <ele>1389.4004</ele>
        <time>2026-07-04T11:32:16+02:00</time>
      </trkpt>
      <trkpt lat="42.72035" lon="0.65456">
        <ele>1389.2998</ele>
        <time>2026-07-04T11:33:10+02:00</time>
      </trkpt>
      <trkpt lat="42.72039" lon="0.65455">
        <ele>1389.2998</ele>
        <time>2026-07-04T11:35:06+02:00</time>
      </trkpt>
      <trkpt lat="42.72031" lon="0.65445">
        <ele>1390.7998</ele>
        <time>2026-07-04T11:35:43+02:00</time>
      </trkpt>
      <trkpt lat="42.72029" lon="0.65444">
        <ele>1390.7998</ele>
        <time>2026-07-04T11:35:46+02:00</time>
      </trkpt>
      <trkpt lat="42.72025" lon="0.65445">
        <ele>1391.7002</ele>
        <time>2026-07-04T11:35:53+02:00</time>
      </trkpt>
      <trkpt lat="42.72017" lon="0.65442">
        <ele>1392.5</ele>
        <time>2026-07-04T11:36:49+02:00</time>
      </trkpt>
      <trkpt lat="42.72" lon="0.65428">
        <ele>1396.2998</ele>
        <time>2026-07-04T11:37:14+02:00</time>
      </trkpt>
      <trkpt lat="42.71998" lon="0.65425">
        <ele>1396.2998</ele>
        <time>2026-07-04T11:37:18+02:00</time>
      </trkpt>
      <trkpt lat="42.71997" lon="0.65412">
        <ele>1398.2002</ele>
        <time>2026-07-04T11:39:10+02:00</time>
      </trkpt>
      <trkpt lat="42.71994" lon="0.65407">
        <ele>1398.9004</ele>
        <time>2026-07-04T11:39:15+02:00</time>
      </trkpt>
      <trkpt lat="42.71986" lon="0.654">
        <ele>1400.2002</ele>
        <time>2026-07-04T11:39:26+02:00</time>
      </trkpt>
      <trkpt lat="42.71974" lon="0.65385">
        <ele>1402.2998</ele>
        <time>2026-07-04T11:39:42+02:00</time>
      </trkpt>
      <trkpt lat="42.7197" lon="0.65383">
        <ele>1403.2002</ele>
        <time>2026-07-04T11:39:45+02:00</time>
      </trkpt>
      <trkpt lat="42.71958" lon="0.65383">
        <ele>1405.1006</ele>
        <time>2026-07-04T11:40:01+02:00</time>
      </trkpt>
      <trkpt lat="42.71941" lon="0.65376">
        <ele>1407.5</ele>
        <time>2026-07-04T11:40:29+02:00</time>
      </trkpt>
      <trkpt lat="42.71935" lon="0.65377">
        <ele>1408.4004</ele>
        <time>2026-07-04T11:40:37+02:00</time>
      </trkpt>
      <trkpt lat="42.71928" lon="0.65375">
        <ele>1409.4004</ele>
        <time>2026-07-04T11:41:00+02:00</time>
      </trkpt>
      <trkpt lat="42.71926" lon="0.65377">
        <ele>1410.2998</ele>
        <time>2026-07-04T11:41:04+02:00</time>
      </trkpt>
      <trkpt lat="42.71916" lon="0.65375">
        <ele>1411.2002</ele>
        <time>2026-07-04T11:41:18+02:00</time>
      </trkpt>
      <trkpt lat="42.71902" lon="0.65377">
        <ele>1413.1006</ele>
        <time>2026-07-04T11:41:36+02:00</time>
      </trkpt>
      <trkpt lat="42.71889" lon="0.65385">
        <ele>1415.2998</ele>
        <time>2026-07-04T11:42:05+02:00</time>
      </trkpt>
      <trkpt lat="42.71868" lon="0.65383">
        <ele>1417.7998</ele>
        <time>2026-07-04T11:42:29+02:00</time>
      </trkpt>
      <trkpt lat="42.71856" lon="0.6537">
        <ele>1419.7998</ele>
        <time>2026-07-04T11:42:46+02:00</time>
      </trkpt>
      <trkpt lat="42.71841" lon="0.65349">
        <ele>1423.1006</ele>
        <time>2026-07-04T11:43:10+02:00</time>
      </trkpt>
      <trkpt lat="42.71834" lon="0.65342">
        <ele>1424.6006</ele>
        <time>2026-07-04T11:43:19+02:00</time>
      </trkpt>
      <trkpt lat="42.71805" lon="0.65329">
        <ele>1428.2002</ele>
        <time>2026-07-04T11:43:50+02:00</time>
      </trkpt>
      <trkpt lat="42.71789" lon="0.65316">
        <ele>1429.2002</ele>
        <time>2026-07-04T11:44:08+02:00</time>
      </trkpt>
      <trkpt lat="42.71777" lon="0.65283">
        <ele>1429.9004</ele>
        <time>2026-07-04T11:44:49+02:00</time>
      </trkpt>
      <trkpt lat="42.71775" lon="0.65282">
        <ele>1430.2998</ele>
        <time>2026-07-04T11:45:42+02:00</time>
      </trkpt>
      <trkpt lat="42.71774" lon="0.65285">
        <ele>1430.5</ele>
        <time>2026-07-04T11:46:20+02:00</time>
      </trkpt>
      <trkpt lat="42.71775" lon="0.65282">
        <ele>1430.2998</ele>
        <time>2026-07-04T11:47:23+02:00</time>
      </trkpt>
      <trkpt lat="42.71774" lon="0.65286">
        <ele>1430.5</ele>
        <time>2026-07-04T11:49:32+02:00</time>
      </trkpt>
      <trkpt lat="42.71776" lon="0.65283">
        <ele>1430.5</ele>
        <time>2026-07-04T11:49:37+02:00</time>
      </trkpt>
      <trkpt lat="42.71775" lon="0.65281">
        <ele>1430.2998</ele>
        <time>2026-07-04T11:51:11+02:00</time>
      </trkpt>
      <trkpt lat="42.71774" lon="0.65286">
        <ele>1430.5</ele>
        <time>2026-07-04T11:51:59+02:00</time>
      </trkpt>
      <trkpt lat="42.71774" lon="0.65281">
        <ele>1430.2998</ele>
        <time>2026-07-04T11:52:21+02:00</time>
      </trkpt>
      <trkpt lat="42.71769" lon="0.65275">
        <ele>1431</ele>
        <time>2026-07-04T11:52:29+02:00</time>
      </trkpt>
      <trkpt lat="42.71747" lon="0.65267">
        <ele>1433.2998</ele>
        <time>2026-07-04T11:52:49+02:00</time>
      </trkpt>
      <trkpt lat="42.71721" lon="0.65254">
        <ele>1436</ele>
        <time>2026-07-04T11:53:18+02:00</time>
      </trkpt>
      <trkpt lat="42.71717" lon="0.65253">
        <ele>1436.9004</ele>
        <time>2026-07-04T11:53:22+02:00</time>
      </trkpt>
      <trkpt lat="42.71709" lon="0.65255">
        <ele>1437.9004</ele>
        <time>2026-07-04T11:53:31+02:00</time>
      </trkpt>
      <trkpt lat="42.71701" lon="0.65244">
        <ele>1438.4004</ele>
        <time>2026-07-04T11:53:53+02:00</time>
      </trkpt>
      <trkpt lat="42.71676" lon="0.65232">
        <ele>1442.4004</ele>
        <time>2026-07-04T11:54:23+02:00</time>
      </trkpt>
      <trkpt lat="42.71655" lon="0.65229">
        <ele>1446.2998</ele>
        <time>2026-07-04T11:54:44+02:00</time>
      </trkpt>
      <trkpt lat="42.71635" lon="0.65223">
        <ele>1449.6006</ele>
        <time>2026-07-04T11:55:04+02:00</time>
      </trkpt>
      <trkpt lat="42.71624" lon="0.65216">
        <ele>1451.1006</ele>
        <time>2026-07-04T11:55:18+02:00</time>
      </trkpt>
      <trkpt lat="42.71612" lon="0.65202">
        <ele>1451.7002</ele>
        <time>2026-07-04T11:55:36+02:00</time>
      </trkpt>
      <trkpt lat="42.71598" lon="0.65191">
        <ele>1455.2002</ele>
        <time>2026-07-04T11:55:54+02:00</time>
      </trkpt>
      <trkpt lat="42.7159" lon="0.65187">
        <ele>1456.1006</ele>
        <time>2026-07-04T11:56:03+02:00</time>
      </trkpt>
      <trkpt lat="42.71588" lon="0.65183">
        <ele>1456.1006</ele>
        <time>2026-07-04T11:56:08+02:00</time>
      </trkpt>
      <trkpt lat="42.71588" lon="0.65161">
        <ele>1455.5</ele>
        <time>2026-07-04T11:56:25+02:00</time>
      </trkpt>
      <trkpt lat="42.7159" lon="0.65151">
        <ele>1456</ele>
        <time>2026-07-04T11:56:36+02:00</time>
      </trkpt>
      <trkpt lat="42.71603" lon="0.65153">
        <ele>1453.5</ele>
        <time>2026-07-04T11:56:46+02:00</time>
      </trkpt>
      <trkpt lat="42.71612" lon="0.65153">
        <ele>1451.2002</ele>
        <time>2026-07-04T11:56:54+02:00</time>
      </trkpt>
      <trkpt lat="42.71633" lon="0.65145">
        <ele>1448.9004</ele>
        <time>2026-07-04T11:57:17+02:00</time>
      </trkpt>
      <trkpt lat="42.71638" lon="0.6514">
        <ele>1448</ele>
        <time>2026-07-04T11:57:31+02:00</time>
      </trkpt>
      <trkpt lat="42.71646" lon="0.65136">
        <ele>1448.2002</ele>
        <time>2026-07-04T11:57:39+02:00</time>
      </trkpt>
      <trkpt lat="42.71657" lon="0.6512">
        <ele>1447.4004</ele>
        <time>2026-07-04T11:58:19+02:00</time>
      </trkpt>
      <trkpt lat="42.71675" lon="0.65102">
        <ele>1449.2002</ele>
        <time>2026-07-04T11:58:50+02:00</time>
      </trkpt>
      <trkpt lat="42.71683" lon="0.651">
        <ele>1447.4004</ele>
        <time>2026-07-04T11:59:03+02:00</time>
      </trkpt>
      <trkpt lat="42.71692" lon="0.65089">
        <ele>1447.5</ele>
        <time>2026-07-04T11:59:24+02:00</time>
      </trkpt>
      <trkpt lat="42.71708" lon="0.6508">
        <ele>1443.2002</ele>
        <time>2026-07-04T11:59:40+02:00</time>
      </trkpt>
      <trkpt lat="42.71728" lon="0.65062">
        <ele>1439.4004</ele>
        <time>2026-07-04T12:00:18+02:00</time>
      </trkpt>
      <trkpt lat="42.71739" lon="0.65058">
        <ele>1436.2002</ele>
        <time>2026-07-04T12:00:28+02:00</time>
      </trkpt>
      <trkpt lat="42.7175" lon="0.65046">
        <ele>1435.4004</ele>
        <time>2026-07-04T12:00:44+02:00</time>
      </trkpt>
      <trkpt lat="42.7176" lon="0.65028">
        <ele>1434.2002</ele>
        <time>2026-07-04T12:01:08+02:00</time>
      </trkpt>
      <trkpt lat="42.71761" lon="0.65032">
        <ele>1434.2002</ele>
        <time>2026-07-04T12:02:28+02:00</time>
      </trkpt>
      <trkpt lat="42.71763" lon="0.65031">
        <ele>1434.2002</ele>
        <time>2026-07-04T12:03:02+02:00</time>
      </trkpt>
      <trkpt lat="42.71763" lon="0.65022">
        <ele>1436.7002</ele>
        <time>2026-07-04T12:03:54+02:00</time>
      </trkpt>
      <trkpt lat="42.71758" lon="0.65013">
        <ele>1439.5</ele>
        <time>2026-07-04T12:04:05+02:00</time>
      </trkpt>
      <trkpt lat="42.7176" lon="0.64996">
        <ele>1446.1006</ele>
        <time>2026-07-04T12:04:19+02:00</time>
      </trkpt>
      <trkpt lat="42.7176" lon="0.64983">
        <ele>1449.7002</ele>
        <time>2026-07-04T12:04:27+02:00</time>
      </trkpt>
      <trkpt lat="42.71761" lon="0.64981">
        <ele>1453.2998</ele>
        <time>2026-07-04T12:04:33+02:00</time>
      </trkpt>
      <trkpt lat="42.71765" lon="0.64986">
        <ele>1446.6006</ele>
        <time>2026-07-04T12:04:46+02:00</time>
      </trkpt>
      <trkpt lat="42.71763" lon="0.64984">
        <ele>1446.6006</ele>
        <time>2026-07-04T12:05:04+02:00</time>
      </trkpt>
      <trkpt lat="42.71762" lon="0.64987">
        <ele>1449.7002</ele>
        <time>2026-07-04T12:05:17+02:00</time>
      </trkpt>
      <trkpt lat="42.71762" lon="0.6498">
        <ele>1453.2998</ele>
        <time>2026-07-04T12:05:42+02:00</time>
      </trkpt>
      <trkpt lat="42.7176" lon="0.64976">
        <ele>1453.2998</ele>
        <time>2026-07-04T12:05:48+02:00</time>
      </trkpt>
      <trkpt lat="42.71764" lon="0.64954">
        <ele>1461.6006</ele>
        <time>2026-07-04T12:06:09+02:00</time>
      </trkpt>
      <trkpt lat="42.71763" lon="0.64946">
        <ele>1465.2998</ele>
        <time>2026-07-04T12:06:16+02:00</time>
      </trkpt>
      <trkpt lat="42.71768" lon="0.64937">
        <ele>1468.9004</ele>
        <time>2026-07-04T12:06:24+02:00</time>
      </trkpt>
      <trkpt lat="42.71775" lon="0.64906">
        <ele>1474.1006</ele>
        <time>2026-07-04T12:06:47+02:00</time>
      </trkpt>
      <trkpt lat="42.71781" lon="0.64894">
        <ele>1474.7998</ele>
        <time>2026-07-04T12:06:59+02:00</time>
      </trkpt>
      <trkpt lat="42.7178" lon="0.64886">
        <ele>1477.1006</ele>
        <time>2026-07-04T12:07:18+02:00</time>
      </trkpt>
      <trkpt lat="42.71784" lon="0.6487">
        <ele>1477.2998</ele>
        <time>2026-07-04T12:07:36+02:00</time>
      </trkpt>
      <trkpt lat="42.71785" lon="0.64859">
        <ele>1479.2998</ele>
        <time>2026-07-04T12:07:46+02:00</time>
      </trkpt>
      <trkpt lat="42.71787" lon="0.64854">
        <ele>1479.2998</ele>
        <time>2026-07-04T12:07:51+02:00</time>
      </trkpt>
      <trkpt lat="42.71789" lon="0.64838">
        <ele>1479.2002</ele>
        <time>2026-07-04T12:08:05+02:00</time>
      </trkpt>
      <trkpt lat="42.7179" lon="0.64836">
        <ele>1480.9004</ele>
        <time>2026-07-04T12:08:07+02:00</time>
      </trkpt>
      <trkpt lat="42.71789" lon="0.64839">
        <ele>1479.2002</ele>
        <time>2026-07-04T12:08:16+02:00</time>
      </trkpt>
      <trkpt lat="42.7179" lon="0.64834">
        <ele>1480.9004</ele>
        <time>2026-07-04T12:09:07+02:00</time>
      </trkpt>
      <trkpt lat="42.71795" lon="0.64832">
        <ele>1477</ele>
        <time>2026-07-04T12:09:12+02:00</time>
      </trkpt>
      <trkpt lat="42.71798" lon="0.64829">
        <ele>1477</ele>
        <time>2026-07-04T12:09:17+02:00</time>
      </trkpt>
      <trkpt lat="42.718" lon="0.64807">
        <ele>1482.4004</ele>
        <time>2026-07-04T12:09:38+02:00</time>
      </trkpt>
      <trkpt lat="42.71822" lon="0.64758">
        <ele>1474.9004</ele>
        <time>2026-07-04T12:10:28+02:00</time>
      </trkpt>
      <trkpt lat="42.71836" lon="0.64709">
        <ele>1471.6006</ele>
        <time>2026-07-04T12:11:11+02:00</time>
      </trkpt>
      <trkpt lat="42.71839" lon="0.64707">
        <ele>1472.4004</ele>
        <time>2026-07-04T12:11:15+02:00</time>
      </trkpt>
      <trkpt lat="42.71839" lon="0.64701">
        <ele>1467.2998</ele>
        <time>2026-07-04T12:11:30+02:00</time>
      </trkpt>
      <trkpt lat="42.71843" lon="0.64696">
        <ele>1467.9004</ele>
        <time>2026-07-04T12:11:56+02:00</time>
      </trkpt>
      <trkpt lat="42.71845" lon="0.64686">
        <ele>1463.2998</ele>
        <time>2026-07-04T12:12:28+02:00</time>
      </trkpt>
      <trkpt lat="42.71853" lon="0.64676">
        <ele>1458.2998</ele>
        <time>2026-07-04T12:12:45+02:00</time>
      </trkpt>
      <trkpt lat="42.71854" lon="0.64671">
        <ele>1458.2998</ele>
        <time>2026-07-04T12:12:49+02:00</time>
      </trkpt>
      <trkpt lat="42.71852" lon="0.64659">
        <ele>1458.9004</ele>
        <time>2026-07-04T12:12:57+02:00</time>
      </trkpt>
      <trkpt lat="42.71851" lon="0.64639">
        <ele>1471.7998</ele>
        <time>2026-07-04T12:14:18+02:00</time>
      </trkpt>
      <trkpt lat="42.71855" lon="0.64631">
        <ele>1465.1006</ele>
        <time>2026-07-04T12:14:27+02:00</time>
      </trkpt>
      <trkpt lat="42.71858" lon="0.6462">
        <ele>1465.2998</ele>
        <time>2026-07-04T12:14:36+02:00</time>
      </trkpt>
      <trkpt lat="42.71864" lon="0.64607">
        <ele>1469.2002</ele>
        <time>2026-07-04T12:14:45+02:00</time>
      </trkpt>
      <trkpt lat="42.71863" lon="0.64601">
        <ele>1473</ele>
        <time>2026-07-04T12:14:50+02:00</time>
      </trkpt>
      <trkpt lat="42.71865" lon="0.64582">
        <ele>1473</ele>
        <time>2026-07-04T12:15:08+02:00</time>
      </trkpt>
      <trkpt lat="42.71877" lon="0.64568">
        <ele>1472.7998</ele>
        <time>2026-07-04T12:15:23+02:00</time>
      </trkpt>
      <trkpt lat="42.71874" lon="0.64572">
        <ele>1469.7998</ele>
        <time>2026-07-04T12:15:58+02:00</time>
      </trkpt>
      <trkpt lat="42.71883" lon="0.64564">
        <ele>1460.2998</ele>
        <time>2026-07-04T12:16:15+02:00</time>
      </trkpt>
      <trkpt lat="42.71892" lon="0.6455">
        <ele>1458.7998</ele>
        <time>2026-07-04T12:16:31+02:00</time>
      </trkpt>
      <trkpt lat="42.71896" lon="0.6454">
        <ele>1454.7998</ele>
        <time>2026-07-04T12:16:51+02:00</time>
      </trkpt>
      <trkpt lat="42.71899" lon="0.64509">
        <ele>1460.1006</ele>
        <time>2026-07-04T12:17:13+02:00</time>
      </trkpt>
      <trkpt lat="42.71892" lon="0.64491">
        <ele>1468.2002</ele>
        <time>2026-07-04T12:17:28+02:00</time>
      </trkpt>
      <trkpt lat="42.71886" lon="0.6448">
        <ele>1475.2998</ele>
        <time>2026-07-04T12:17:44+02:00</time>
      </trkpt>
      <trkpt lat="42.71886" lon="0.64476">
        <ele>1476.7002</ele>
        <time>2026-07-04T12:17:51+02:00</time>
      </trkpt>
      <trkpt lat="42.71887" lon="0.64466">
        <ele>1478</ele>
        <time>2026-07-04T12:18:17+02:00</time>
      </trkpt>
      <trkpt lat="42.7189" lon="0.64467">
        <ele>1472.1006</ele>
        <time>2026-07-04T12:18:50+02:00</time>
      </trkpt>
      <trkpt lat="42.71889" lon="0.64458">
        <ele>1479.4004</ele>
        <time>2026-07-04T12:18:59+02:00</time>
      </trkpt>
      <trkpt lat="42.71894" lon="0.64438">
        <ele>1475.7998</ele>
        <time>2026-07-04T12:19:14+02:00</time>
      </trkpt>
      <trkpt lat="42.71888" lon="0.64422">
        <ele>1484.4004</ele>
        <time>2026-07-04T12:19:22+02:00</time>
      </trkpt>
      <trkpt lat="42.71882" lon="0.64416">
        <ele>1490.6006</ele>
        <time>2026-07-04T12:19:39+02:00</time>
      </trkpt>
      <trkpt lat="42.71877" lon="0.64407">
        <ele>1493.2002</ele>
        <time>2026-07-04T12:19:56+02:00</time>
      </trkpt>
      <trkpt lat="42.71874" lon="0.64405">
        <ele>1499.2002</ele>
        <time>2026-07-04T12:20:00+02:00</time>
      </trkpt>
      <trkpt lat="42.71878" lon="0.64396">
        <ele>1494.5</ele>
        <time>2026-07-04T12:20:13+02:00</time>
      </trkpt>
      <trkpt lat="42.71881" lon="0.64388">
        <ele>1495.9004</ele>
        <time>2026-07-04T12:20:19+02:00</time>
      </trkpt>
      <trkpt lat="42.71881" lon="0.64382">
        <ele>1495.9004</ele>
        <time>2026-07-04T12:20:23+02:00</time>
      </trkpt>
      <trkpt lat="42.71886" lon="0.64369">
        <ele>1492.5</ele>
        <time>2026-07-04T12:20:35+02:00</time>
      </trkpt>
      <trkpt lat="42.71885" lon="0.64358">
        <ele>1493.7998</ele>
        <time>2026-07-04T12:20:50+02:00</time>
      </trkpt>
      <trkpt lat="42.71888" lon="0.64353">
        <ele>1495.1006</ele>
        <time>2026-07-04T12:21:00+02:00</time>
      </trkpt>
      <trkpt lat="42.71888" lon="0.64347">
        <ele>1496.4004</ele>
        <time>2026-07-04T12:21:20+02:00</time>
      </trkpt>
      <trkpt lat="42.7189" lon="0.64343">
        <ele>1490.9004</ele>
        <time>2026-07-04T12:21:25+02:00</time>
      </trkpt>
      <trkpt lat="42.71896" lon="0.64317">
        <ele>1490</ele>
        <time>2026-07-04T12:21:51+02:00</time>
      </trkpt>
      <trkpt lat="42.71897" lon="0.64302">
        <ele>1492.5</ele>
        <time>2026-07-04T12:22:04+02:00</time>
      </trkpt>
      <trkpt lat="42.71901" lon="0.64286">
        <ele>1494.5</ele>
        <time>2026-07-04T12:22:19+02:00</time>
      </trkpt>
      <trkpt lat="42.71904" lon="0.64252">
        <ele>1494.2002</ele>
        <time>2026-07-04T12:22:44+02:00</time>
      </trkpt>
      <trkpt lat="42.71902" lon="0.64209">
        <ele>1496.5</ele>
        <time>2026-07-04T12:23:16+02:00</time>
      </trkpt>
      <trkpt lat="42.71904" lon="0.64179">
        <ele>1496.9004</ele>
        <time>2026-07-04T12:23:43+02:00</time>
      </trkpt>
      <trkpt lat="42.71903" lon="0.64169">
        <ele>1497</ele>
        <time>2026-07-04T12:23:51+02:00</time>
      </trkpt>
      <trkpt lat="42.71906" lon="0.6416">
        <ele>1496.7002</ele>
        <time>2026-07-04T12:23:58+02:00</time>
      </trkpt>
      <trkpt lat="42.71906" lon="0.64141">
        <ele>1492.7002</ele>
        <time>2026-07-04T12:24:14+02:00</time>
      </trkpt>
      <trkpt lat="42.71902" lon="0.6413">
        <ele>1493.6006</ele>
        <time>2026-07-04T12:24:23+02:00</time>
      </trkpt>
      <trkpt lat="42.71893" lon="0.64119">
        <ele>1493.7998</ele>
        <time>2026-07-04T12:24:35+02:00</time>
      </trkpt>
      <trkpt lat="42.71891" lon="0.64118">
        <ele>1493.7998</ele>
        <time>2026-07-04T12:24:38+02:00</time>
      </trkpt>
      <trkpt lat="42.71885" lon="0.6412">
        <ele>1494.7998</ele>
        <time>2026-07-04T12:24:47+02:00</time>
      </trkpt>
      <trkpt lat="42.71891" lon="0.64118">
        <ele>1493.7998</ele>
        <time>2026-07-04T12:24:52+02:00</time>
      </trkpt>
      <trkpt lat="42.71893" lon="0.64108">
        <ele>1492.2998</ele>
        <time>2026-07-04T12:25:01+02:00</time>
      </trkpt>
      <trkpt lat="42.71892" lon="0.64098">
        <ele>1491.4004</ele>
        <time>2026-07-04T12:25:08+02:00</time>
      </trkpt>
      <trkpt lat="42.71886" lon="0.64084">
        <ele>1493.7002</ele>
        <time>2026-07-04T12:25:18+02:00</time>
      </trkpt>
      <trkpt lat="42.71888" lon="0.64048">
        <ele>1500.5</ele>
        <time>2026-07-04T12:25:48+02:00</time>
      </trkpt>
      <trkpt lat="42.71895" lon="0.64019">
        <ele>1499.1006</ele>
        <time>2026-07-04T12:26:14+02:00</time>
      </trkpt>
      <trkpt lat="42.71897" lon="0.64016">
        <ele>1495.9004</ele>
        <time>2026-07-04T12:26:19+02:00</time>
      </trkpt>
      <trkpt lat="42.71907" lon="0.6401">
        <ele>1493</ele>
        <time>2026-07-04T12:26:32+02:00</time>
      </trkpt>
      <trkpt lat="42.71923" lon="0.63986">
        <ele>1486.7998</ele>
        <time>2026-07-04T12:26:56+02:00</time>
      </trkpt>
      <trkpt lat="42.71926" lon="0.63971">
        <ele>1487.7998</ele>
        <time>2026-07-04T12:27:06+02:00</time>
      </trkpt>
      <trkpt lat="42.71922" lon="0.63953">
        <ele>1490.2002</ele>
        <time>2026-07-04T12:27:21+02:00</time>
      </trkpt>
      <trkpt lat="42.71922" lon="0.63939">
        <ele>1493.1006</ele>
        <time>2026-07-04T12:27:33+02:00</time>
      </trkpt>
      <trkpt lat="42.71925" lon="0.63925">
        <ele>1496.5</ele>
        <time>2026-07-04T12:27:53+02:00</time>
      </trkpt>
      <trkpt lat="42.71924" lon="0.63909">
        <ele>1501</ele>
        <time>2026-07-04T12:28:50+02:00</time>
      </trkpt>
      <trkpt lat="42.71925" lon="0.63912">
        <ele>1498.6006</ele>
        <time>2026-07-04T12:29:02+02:00</time>
      </trkpt>
      <trkpt lat="42.71928" lon="0.63904">
        <ele>1499.1006</ele>
        <time>2026-07-04T12:29:14+02:00</time>
      </trkpt>
      <trkpt lat="42.71928" lon="0.63891">
        <ele>1504.5</ele>
        <time>2026-07-04T12:29:23+02:00</time>
      </trkpt>
      <trkpt lat="42.7193" lon="0.63887">
        <ele>1504.5</ele>
        <time>2026-07-04T12:29:27+02:00</time>
      </trkpt>
      <trkpt lat="42.71934" lon="0.63886">
        <ele>1502.7002</ele>
        <time>2026-07-04T12:29:32+02:00</time>
      </trkpt>
      <trkpt lat="42.71962" lon="0.63867">
        <ele>1501</ele>
        <time>2026-07-04T12:30:40+02:00</time>
      </trkpt>
      <trkpt lat="42.71961" lon="0.63863">
        <ele>1504.4004</ele>
        <time>2026-07-04T12:31:09+02:00</time>
      </trkpt>
      <trkpt lat="42.71957" lon="0.63861">
        <ele>1506.5</ele>
        <time>2026-07-04T12:32:23+02:00</time>
      </trkpt>
      <trkpt lat="42.71969" lon="0.63866">
        <ele>1502.1006</ele>
        <time>2026-07-04T12:32:37+02:00</time>
      </trkpt>
      <trkpt lat="42.71977" lon="0.63865">
        <ele>1499.7002</ele>
        <time>2026-07-04T12:32:41+02:00</time>
      </trkpt>
      <trkpt lat="42.71979" lon="0.63862">
        <ele>1497</ele>
        <time>2026-07-04T12:32:43+02:00</time>
      </trkpt>
      <trkpt lat="42.71978" lon="0.63857">
        <ele>1500.4004</ele>
        <time>2026-07-04T12:32:47+02:00</time>
      </trkpt>
      <trkpt lat="42.7198" lon="0.63854">
        <ele>1500.4004</ele>
        <time>2026-07-04T12:32:50+02:00</time>
      </trkpt>
      <trkpt lat="42.71994" lon="0.63849">
        <ele>1497.7998</ele>
        <time>2026-07-04T12:33:05+02:00</time>
      </trkpt>
      <trkpt lat="42.71996" lon="0.63845">
        <ele>1497.7998</ele>
        <time>2026-07-04T12:33:15+02:00</time>
      </trkpt>
      <trkpt lat="42.72001" lon="0.63845">
        <ele>1494.4004</ele>
        <time>2026-07-04T12:33:24+02:00</time>
      </trkpt>
      <trkpt lat="42.7201" lon="0.63835">
        <ele>1490.4004</ele>
        <time>2026-07-04T12:33:35+02:00</time>
      </trkpt>
      <trkpt lat="42.72016" lon="0.63824">
        <ele>1489.6006</ele>
        <time>2026-07-04T12:33:45+02:00</time>
      </trkpt>
      <trkpt lat="42.72021" lon="0.63813">
        <ele>1495.2998</ele>
        <time>2026-07-04T12:33:54+02:00</time>
      </trkpt>
      <trkpt lat="42.72023" lon="0.638">
        <ele>1493.7998</ele>
        <time>2026-07-04T12:34:08+02:00</time>
      </trkpt>
      <trkpt lat="42.72026" lon="0.63789">
        <ele>1498.5</ele>
        <time>2026-07-04T12:34:24+02:00</time>
      </trkpt>
      <trkpt lat="42.72026" lon="0.63785">
        <ele>1498.5</ele>
        <time>2026-07-04T12:34:28+02:00</time>
      </trkpt>
      <trkpt lat="42.72037" lon="0.63745">
        <ele>1499.6006</ele>
        <time>2026-07-04T12:35:02+02:00</time>
      </trkpt>
      <trkpt lat="42.72041" lon="0.63721">
        <ele>1498.5</ele>
        <time>2026-07-04T12:35:22+02:00</time>
      </trkpt>
      <trkpt lat="42.72044" lon="0.63714">
        <ele>1500</ele>
        <time>2026-07-04T12:35:30+02:00</time>
      </trkpt>
      <trkpt lat="42.72042" lon="0.63711">
        <ele>1501.6006</ele>
        <time>2026-07-04T12:35:33+02:00</time>
      </trkpt>
      <trkpt lat="42.72043" lon="0.63708">
        <ele>1501.6006</ele>
        <time>2026-07-04T12:35:36+02:00</time>
      </trkpt>
      <trkpt lat="42.72049" lon="0.63694">
        <ele>1499.7998</ele>
        <time>2026-07-04T12:35:50+02:00</time>
      </trkpt>
      <trkpt lat="42.72049" lon="0.63685">
        <ele>1501.5</ele>
        <time>2026-07-04T12:35:59+02:00</time>
      </trkpt>
      <trkpt lat="42.7206" lon="0.63668">
        <ele>1496.1006</ele>
        <time>2026-07-04T12:36:14+02:00</time>
      </trkpt>
      <trkpt lat="42.72061" lon="0.63656">
        <ele>1498.7998</ele>
        <time>2026-07-04T12:36:26+02:00</time>
      </trkpt>
      <trkpt lat="42.72061" lon="0.63649">
        <ele>1501.5</ele>
        <time>2026-07-04T12:36:33+02:00</time>
      </trkpt>
      <trkpt lat="42.72062" lon="0.63646">
        <ele>1501.5</ele>
        <time>2026-07-04T12:36:37+02:00</time>
      </trkpt>
      <trkpt lat="42.72069" lon="0.63637">
        <ele>1499.1006</ele>
        <time>2026-07-04T12:36:48+02:00</time>
      </trkpt>
      <trkpt lat="42.72073" lon="0.63629">
        <ele>1496.9004</ele>
        <time>2026-07-04T12:37:00+02:00</time>
      </trkpt>
      <trkpt lat="42.72084" lon="0.63615">
        <ele>1497.2998</ele>
        <time>2026-07-04T12:37:39+02:00</time>
      </trkpt>
      <trkpt lat="42.72081" lon="0.6361">
        <ele>1497.2998</ele>
        <time>2026-07-04T12:37:47+02:00</time>
      </trkpt>
      <trkpt lat="42.72082" lon="0.63605">
        <ele>1499.7002</ele>
        <time>2026-07-04T12:37:53+02:00</time>
      </trkpt>
      <trkpt lat="42.72087" lon="0.63591">
        <ele>1499.2998</ele>
        <time>2026-07-04T12:38:02+02:00</time>
      </trkpt>
      <trkpt lat="42.72086" lon="0.6358">
        <ele>1501.2998</ele>
        <time>2026-07-04T12:38:11+02:00</time>
      </trkpt>
      <trkpt lat="42.72088" lon="0.63568">
        <ele>1503.2998</ele>
        <time>2026-07-04T12:38:21+02:00</time>
      </trkpt>
      <trkpt lat="42.72088" lon="0.63561">
        <ele>1505.2998</ele>
        <time>2026-07-04T12:38:26+02:00</time>
      </trkpt>
      <trkpt lat="42.72089" lon="0.63546">
        <ele>1509.7002</ele>
        <time>2026-07-04T12:38:36+02:00</time>
      </trkpt>
      <trkpt lat="42.72092" lon="0.63537">
        <ele>1507.6006</ele>
        <time>2026-07-04T12:38:47+02:00</time>
      </trkpt>
      <trkpt lat="42.72104" lon="0.63527">
        <ele>1505.7002</ele>
        <time>2026-07-04T12:39:02+02:00</time>
      </trkpt>
      <trkpt lat="42.72109" lon="0.63517">
        <ele>1503.9004</ele>
        <time>2026-07-04T12:39:10+02:00</time>
      </trkpt>
      <trkpt lat="42.7211" lon="0.63506">
        <ele>1505.2998</ele>
        <time>2026-07-04T12:39:19+02:00</time>
      </trkpt>
      <trkpt lat="42.72114" lon="0.63501">
        <ele>1505.2998</ele>
        <time>2026-07-04T12:39:24+02:00</time>
      </trkpt>
      <trkpt lat="42.72118" lon="0.63492">
        <ele>1503.7998</ele>
        <time>2026-07-04T12:39:33+02:00</time>
      </trkpt>
      <trkpt lat="42.72122" lon="0.63484">
        <ele>1506.9004</ele>
        <time>2026-07-04T12:39:42+02:00</time>
      </trkpt>
      <trkpt lat="42.72132" lon="0.63475">
        <ele>1500.1006</ele>
        <time>2026-07-04T12:39:52+02:00</time>
      </trkpt>
      <trkpt lat="42.72138" lon="0.63461">
        <ele>1500.7998</ele>
        <time>2026-07-04T12:40:07+02:00</time>
      </trkpt>
      <trkpt lat="42.72134" lon="0.63445">
        <ele>1511.9004</ele>
        <time>2026-07-04T12:40:20+02:00</time>
      </trkpt>
      <trkpt lat="42.72135" lon="0.63439">
        <ele>1511.9004</ele>
        <time>2026-07-04T12:40:24+02:00</time>
      </trkpt>
      <trkpt lat="42.72141" lon="0.63426">
        <ele>1511.6006</ele>
        <time>2026-07-04T12:40:40+02:00</time>
      </trkpt>
      <trkpt lat="42.72138" lon="0.63408">
        <ele>1516.7002</ele>
        <time>2026-07-04T12:40:55+02:00</time>
      </trkpt>
      <trkpt lat="42.72145" lon="0.63392">
        <ele>1515.4004</ele>
        <time>2026-07-04T12:41:10+02:00</time>
      </trkpt>
      <trkpt lat="42.72146" lon="0.63387">
        <ele>1515.4004</ele>
        <time>2026-07-04T12:41:15+02:00</time>
      </trkpt>
      <trkpt lat="42.72144" lon="0.63383">
        <ele>1517.7002</ele>
        <time>2026-07-04T12:41:19+02:00</time>
      </trkpt>
      <trkpt lat="42.72144" lon="0.63376">
        <ele>1519.9004</ele>
        <time>2026-07-04T12:41:24+02:00</time>
      </trkpt>
      <trkpt lat="42.7215" lon="0.63356">
        <ele>1517.1006</ele>
        <time>2026-07-04T12:41:40+02:00</time>
      </trkpt>
      <trkpt lat="42.72148" lon="0.63347">
        <ele>1525.7998</ele>
        <time>2026-07-04T12:41:49+02:00</time>
      </trkpt>
      <trkpt lat="42.72149" lon="0.63339">
        <ele>1520.7002</ele>
        <time>2026-07-04T12:41:57+02:00</time>
      </trkpt>
      <trkpt lat="42.72154" lon="0.63328">
        <ele>1515.5</ele>
        <time>2026-07-04T12:42:06+02:00</time>
      </trkpt>
      <trkpt lat="42.72154" lon="0.63321">
        <ele>1517.2002</ele>
        <time>2026-07-04T12:42:11+02:00</time>
      </trkpt>
      <trkpt lat="42.72157" lon="0.63311">
        <ele>1518.7998</ele>
        <time>2026-07-04T12:42:19+02:00</time>
      </trkpt>
      <trkpt lat="42.72154" lon="0.63303">
        <ele>1526.2998</ele>
        <time>2026-07-04T12:42:25+02:00</time>
      </trkpt>
      <trkpt lat="42.72154" lon="0.63294">
        <ele>1527.2002</ele>
        <time>2026-07-04T12:42:33+02:00</time>
      </trkpt>
      <trkpt lat="42.72157" lon="0.63273">
        <ele>1523.2002</ele>
        <time>2026-07-04T12:42:51+02:00</time>
      </trkpt>
      <trkpt lat="42.72152" lon="0.63258">
        <ele>1529</ele>
        <time>2026-07-04T12:43:10+02:00</time>
      </trkpt>
      <trkpt lat="42.72148" lon="0.63257">
        <ele>1528.9004</ele>
        <time>2026-07-04T12:43:51+02:00</time>
      </trkpt>
      <trkpt lat="42.72149" lon="0.63251">
        <ele>1528.9004</ele>
        <time>2026-07-04T12:44:21+02:00</time>
      </trkpt>
      <trkpt lat="42.72153" lon="0.6325">
        <ele>1528.9004</ele>
        <time>2026-07-04T12:44:52+02:00</time>
      </trkpt>
      <trkpt lat="42.72151" lon="0.63249">
        <ele>1528.9004</ele>
        <time>2026-07-04T12:45:50+02:00</time>
      </trkpt>
      <trkpt lat="42.72153" lon="0.63248">
        <ele>1528.7998</ele>
        <time>2026-07-04T12:46:18+02:00</time>
      </trkpt>
      <trkpt lat="42.72155" lon="0.63249">
        <ele>1523.7002</ele>
        <time>2026-07-04T12:46:36+02:00</time>
      </trkpt>
      <trkpt lat="42.7215" lon="0.63249">
        <ele>1528.9004</ele>
        <time>2026-07-04T12:46:50+02:00</time>
      </trkpt>
      <trkpt lat="42.7215" lon="0.63243">
        <ele>1528.7998</ele>
        <time>2026-07-04T12:47:08+02:00</time>
      </trkpt>
      <trkpt lat="42.72153" lon="0.63244">
        <ele>1528.7998</ele>
        <time>2026-07-04T12:47:23+02:00</time>
      </trkpt>
      <trkpt lat="42.72151" lon="0.63243">
        <ele>1528.7998</ele>
        <time>2026-07-04T12:47:43+02:00</time>
      </trkpt>
      <trkpt lat="42.7215" lon="0.63246">
        <ele>1528.7998</ele>
        <time>2026-07-04T12:48:11+02:00</time>
      </trkpt>
      <trkpt lat="42.72153" lon="0.63249">
        <ele>1528.9004</ele>
        <time>2026-07-04T12:48:42+02:00</time>
      </trkpt>
      <trkpt lat="42.72152" lon="0.63246">
        <ele>1528.7998</ele>
        <time>2026-07-04T12:48:50+02:00</time>
      </trkpt>
      <trkpt lat="42.72156" lon="0.63242">
        <ele>1523.7002</ele>
        <time>2026-07-04T12:49:56+02:00</time>
      </trkpt>
      <trkpt lat="42.7216" lon="0.63231">
        <ele>1523.4004</ele>
        <time>2026-07-04T12:50:08+02:00</time>
      </trkpt>
      <trkpt lat="42.72161" lon="0.63219">
        <ele>1518.2002</ele>
        <time>2026-07-04T12:50:19+02:00</time>
      </trkpt>
      <trkpt lat="42.72157" lon="0.63206">
        <ele>1522.7002</ele>
        <time>2026-07-04T12:50:32+02:00</time>
      </trkpt>
      <trkpt lat="42.72159" lon="0.632">
        <ele>1522.4004</ele>
        <time>2026-07-04T12:50:53+02:00</time>
      </trkpt>
      <trkpt lat="42.72158" lon="0.63186">
        <ele>1522.1006</ele>
        <time>2026-07-04T12:51:05+02:00</time>
      </trkpt>
      <trkpt lat="42.72155" lon="0.63177">
        <ele>1522</ele>
        <time>2026-07-04T12:51:12+02:00</time>
      </trkpt>
      <trkpt lat="42.72156" lon="0.63168">
        <ele>1522</ele>
        <time>2026-07-04T12:51:20+02:00</time>
      </trkpt>
      <trkpt lat="42.72149" lon="0.63152">
        <ele>1526.7998</ele>
        <time>2026-07-04T12:51:36+02:00</time>
      </trkpt>
      <trkpt lat="42.72137" lon="0.63145">
        <ele>1536</ele>
        <time>2026-07-04T12:51:48+02:00</time>
      </trkpt>
      <trkpt lat="42.72136" lon="0.63135">
        <ele>1536.2002</ele>
        <time>2026-07-04T12:51:59+02:00</time>
      </trkpt>
      <trkpt lat="42.7214" lon="0.63124">
        <ele>1536.4004</ele>
        <time>2026-07-04T12:52:08+02:00</time>
      </trkpt>
      <trkpt lat="42.7214" lon="0.63121">
        <ele>1536.4004</ele>
        <time>2026-07-04T12:52:11+02:00</time>
      </trkpt>
      <trkpt lat="42.72135" lon="0.63114">
        <ele>1541.1006</ele>
        <time>2026-07-04T12:52:18+02:00</time>
      </trkpt>
      <trkpt lat="42.72128" lon="0.63095">
        <ele>1545.7002</ele>
        <time>2026-07-04T12:52:34+02:00</time>
      </trkpt>
      <trkpt lat="42.72131" lon="0.63086">
        <ele>1541.2002</ele>
        <time>2026-07-04T12:52:42+02:00</time>
      </trkpt>
      <trkpt lat="42.72131" lon="0.63069">
        <ele>1541.1006</ele>
        <time>2026-07-04T12:52:56+02:00</time>
      </trkpt>
      <trkpt lat="42.72133" lon="0.6306">
        <ele>1540.5</ele>
        <time>2026-07-04T12:53:05+02:00</time>
      </trkpt>
      <trkpt lat="42.72131" lon="0.63054">
        <ele>1540.5</ele>
        <time>2026-07-04T12:53:13+02:00</time>
      </trkpt>
      <trkpt lat="42.72134" lon="0.63048">
        <ele>1540.1006</ele>
        <time>2026-07-04T12:53:21+02:00</time>
      </trkpt>
      <trkpt lat="42.72134" lon="0.63044">
        <ele>1540.1006</ele>
        <time>2026-07-04T12:53:26+02:00</time>
      </trkpt>
      <trkpt lat="42.7214" lon="0.63037">
        <ele>1535.7998</ele>
        <time>2026-07-04T12:53:34+02:00</time>
      </trkpt>
      <trkpt lat="42.72122" lon="0.63017">
        <ele>1545.1006</ele>
        <time>2026-07-04T12:53:54+02:00</time>
      </trkpt>
      <trkpt lat="42.72122" lon="0.63014">
        <ele>1544</ele>
        <time>2026-07-04T12:53:59+02:00</time>
      </trkpt>
      <trkpt lat="42.72125" lon="0.63014">
        <ele>1540.5</ele>
        <time>2026-07-04T12:54:02+02:00</time>
      </trkpt>
      <trkpt lat="42.7213" lon="0.63005">
        <ele>1535.9004</ele>
        <time>2026-07-04T12:54:15+02:00</time>
      </trkpt>
      <trkpt lat="42.72133" lon="0.63004">
        <ele>1535.9004</ele>
        <time>2026-07-04T12:54:23+02:00</time>
      </trkpt>
      <trkpt lat="42.72137" lon="0.62998">
        <ele>1531.1006</ele>
        <time>2026-07-04T12:54:27+02:00</time>
      </trkpt>
      <trkpt lat="42.72138" lon="0.62991">
        <ele>1529.4004</ele>
        <time>2026-07-04T12:54:30+02:00</time>
      </trkpt>
      <trkpt lat="42.72137" lon="0.62981">
        <ele>1527.5</ele>
        <time>2026-07-04T12:54:35+02:00</time>
      </trkpt>
      <trkpt lat="42.72133" lon="0.62972">
        <ele>1528.5</ele>
        <time>2026-07-04T12:54:42+02:00</time>
      </trkpt>
      <trkpt lat="42.72119" lon="0.62976">
        <ele>1537.5</ele>
        <time>2026-07-04T12:54:58+02:00</time>
      </trkpt>
      <trkpt lat="42.72113" lon="0.62951">
        <ele>1534</ele>
        <time>2026-07-04T12:55:22+02:00</time>
      </trkpt>
      <trkpt lat="42.72109" lon="0.62947">
        <ele>1535.1006</ele>
        <time>2026-07-04T12:55:28+02:00</time>
      </trkpt>
      <trkpt lat="42.72102" lon="0.62944">
        <ele>1538.9004</ele>
        <time>2026-07-04T12:55:39+02:00</time>
      </trkpt>
      <trkpt lat="42.721" lon="0.62938">
        <ele>1536.1006</ele>
        <time>2026-07-04T12:55:44+02:00</time>
      </trkpt>
      <trkpt lat="42.72085" lon="0.62917">
        <ele>1537.2002</ele>
        <time>2026-07-04T12:56:01+02:00</time>
      </trkpt>
      <trkpt lat="42.72074" lon="0.62913">
        <ele>1541.2002</ele>
        <time>2026-07-04T12:56:14+02:00</time>
      </trkpt>
      <trkpt lat="42.72067" lon="0.62899">
        <ele>1541.1006</ele>
        <time>2026-07-04T12:56:24+02:00</time>
      </trkpt>
      <trkpt lat="42.72066" lon="0.62896">
        <ele>1541.1006</ele>
        <time>2026-07-04T12:56:28+02:00</time>
      </trkpt>
      <trkpt lat="42.72067" lon="0.62893">
        <ele>1537</ele>
        <time>2026-07-04T12:56:33+02:00</time>
      </trkpt>
      <trkpt lat="42.72064" lon="0.62889">
        <ele>1541.1006</ele>
        <time>2026-07-04T12:56:38+02:00</time>
      </trkpt>
      <trkpt lat="42.72054" lon="0.62883">
        <ele>1541.1006</ele>
        <time>2026-07-04T12:56:50+02:00</time>
      </trkpt>
      <trkpt lat="42.72045" lon="0.62881">
        <ele>1549.7998</ele>
        <time>2026-07-04T12:57:00+02:00</time>
      </trkpt>
      <trkpt lat="42.72037" lon="0.62875">
        <ele>1550</ele>
        <time>2026-07-04T12:57:12+02:00</time>
      </trkpt>
      <trkpt lat="42.72028" lon="0.62863">
        <ele>1550.1006</ele>
        <time>2026-07-04T12:57:24+02:00</time>
      </trkpt>
      <trkpt lat="42.72022" lon="0.62846">
        <ele>1545.2998</ele>
        <time>2026-07-04T12:57:40+02:00</time>
      </trkpt>
      <trkpt lat="42.72011" lon="0.62836">
        <ele>1543.9004</ele>
        <time>2026-07-04T12:57:53+02:00</time>
      </trkpt>
      <trkpt lat="42.72017" lon="0.62833">
        <ele>1539.7998</ele>
        <time>2026-07-04T12:58:08+02:00</time>
      </trkpt>
      <trkpt lat="42.72018" lon="0.6283">
        <ele>1539.7998</ele>
        <time>2026-07-04T12:58:13+02:00</time>
      </trkpt>
      <trkpt lat="42.72016" lon="0.62827">
        <ele>1534.7998</ele>
        <time>2026-07-04T12:58:17+02:00</time>
      </trkpt>
      <trkpt lat="42.72014" lon="0.62826">
        <ele>1538.9004</ele>
        <time>2026-07-04T12:58:21+02:00</time>
      </trkpt>
      <trkpt lat="42.72012" lon="0.62828">
        <ele>1538.9004</ele>
        <time>2026-07-04T12:58:27+02:00</time>
      </trkpt>
      <trkpt lat="42.72011" lon="0.62826">
        <ele>1538.9004</ele>
        <time>2026-07-04T12:58:43+02:00</time>
      </trkpt>
      <trkpt lat="42.72008" lon="0.62828">
        <ele>1547.7002</ele>
        <time>2026-07-04T12:59:02+02:00</time>
      </trkpt>
      <trkpt lat="42.72007" lon="0.62824">
        <ele>1542.7002</ele>
        <time>2026-07-04T12:59:21+02:00</time>
      </trkpt>
      <trkpt lat="42.72009" lon="0.62817">
        <ele>1537.5</ele>
        <time>2026-07-04T13:01:33+02:00</time>
      </trkpt>
      <trkpt lat="42.72003" lon="0.62814">
        <ele>1537.5</ele>
        <time>2026-07-04T13:01:46+02:00</time>
      </trkpt>
      <trkpt lat="42.71999" lon="0.62816">
        <ele>1541.2002</ele>
        <time>2026-07-04T13:01:51+02:00</time>
      </trkpt>
      <trkpt lat="42.71995" lon="0.62815">
        <ele>1544.6006</ele>
        <time>2026-07-04T13:01:56+02:00</time>
      </trkpt>
      <trkpt lat="42.71979" lon="0.62799">
        <ele>1541.1006</ele>
        <time>2026-07-04T13:02:14+02:00</time>
      </trkpt>
      <trkpt lat="42.71963" lon="0.62793">
        <ele>1545.2998</ele>
        <time>2026-07-04T13:02:33+02:00</time>
      </trkpt>
      <trkpt lat="42.7196" lon="0.62786">
        <ele>1545.2998</ele>
        <time>2026-07-04T13:02:42+02:00</time>
      </trkpt>
      <trkpt lat="42.71955" lon="0.62783">
        <ele>1543.2998</ele>
        <time>2026-07-04T13:02:48+02:00</time>
      </trkpt>
      <trkpt lat="42.71948" lon="0.62782">
        <ele>1545.7002</ele>
        <time>2026-07-04T13:02:56+02:00</time>
      </trkpt>
      <trkpt lat="42.71944" lon="0.62784">
        <ele>1547.9004</ele>
        <time>2026-07-04T13:03:21+02:00</time>
      </trkpt>
      <trkpt lat="42.71936" lon="0.62789">
        <ele>1554.2998</ele>
        <time>2026-07-04T13:03:30+02:00</time>
      </trkpt>
      <trkpt lat="42.71929" lon="0.62799">
        <ele>1560.4004</ele>
        <time>2026-07-04T13:03:38+02:00</time>
      </trkpt>
      <trkpt lat="42.71926" lon="0.628">
        <ele>1562</ele>
        <time>2026-07-04T13:03:41+02:00</time>
      </trkpt>
      <trkpt lat="42.71923" lon="0.62803">
        <ele>1566.4004</ele>
        <time>2026-07-04T13:03:45+02:00</time>
      </trkpt>
      <trkpt lat="42.71916" lon="0.62802">
        <ele>1563.2998</ele>
        <time>2026-07-04T13:04:19+02:00</time>
      </trkpt>
      <trkpt lat="42.71912" lon="0.62804">
        <ele>1569</ele>
        <time>2026-07-04T13:04:30+02:00</time>
      </trkpt>
      <trkpt lat="42.71907" lon="0.62808">
        <ele>1570.2002</ele>
        <time>2026-07-04T13:04:37+02:00</time>
      </trkpt>
      <trkpt lat="42.71892" lon="0.62816">
        <ele>1576.4004</ele>
        <time>2026-07-04T13:04:59+02:00</time>
      </trkpt>
      <trkpt lat="42.71893" lon="0.62821">
        <ele>1580.2998</ele>
        <time>2026-07-04T13:05:06+02:00</time>
      </trkpt>
      <trkpt lat="42.71895" lon="0.62826">
        <ele>1580.2998</ele>
        <time>2026-07-04T13:05:10+02:00</time>
      </trkpt>
      <trkpt lat="42.71894" lon="0.62834">
        <ele>1584.1006</ele>
        <time>2026-07-04T13:05:25+02:00</time>
      </trkpt>
      <trkpt lat="42.71899" lon="0.62823">
        <ele>1579.2998</ele>
        <time>2026-07-04T13:05:41+02:00</time>
      </trkpt>
      <trkpt lat="42.71898" lon="0.62818">
        <ele>1575.2998</ele>
        <time>2026-07-04T13:05:45+02:00</time>
      </trkpt>
      <trkpt lat="42.71898" lon="0.6282">
        <ele>1579.2998</ele>
        <time>2026-07-04T13:05:50+02:00</time>
      </trkpt>
      <trkpt lat="42.71897" lon="0.62818">
        <ele>1575.2998</ele>
        <time>2026-07-04T13:06:00+02:00</time>
      </trkpt>
      <trkpt lat="42.71898" lon="0.62813">
        <ele>1575.2998</ele>
        <time>2026-07-04T13:06:08+02:00</time>
      </trkpt>
      <trkpt lat="42.71902" lon="0.62819">
        <ele>1575.2998</ele>
        <time>2026-07-04T13:06:20+02:00</time>
      </trkpt>
      <trkpt lat="42.71901" lon="0.6282">
        <ele>1579.2998</ele>
        <time>2026-07-04T13:06:31+02:00</time>
      </trkpt>
      <trkpt lat="42.719" lon="0.62819">
        <ele>1575.2998</ele>
        <time>2026-07-04T13:06:34+02:00</time>
      </trkpt>
      <trkpt lat="42.71901" lon="0.62813">
        <ele>1575.2998</ele>
        <time>2026-07-04T13:06:45+02:00</time>
      </trkpt>
      <trkpt lat="42.71905" lon="0.62818">
        <ele>1574.2998</ele>
        <time>2026-07-04T13:06:53+02:00</time>
      </trkpt>
      <trkpt lat="42.71892" lon="0.62804">
        <ele>1572.2002</ele>
        <time>2026-07-04T13:07:07+02:00</time>
      </trkpt>
      <trkpt lat="42.71885" lon="0.62791">
        <ele>1564.7002</ele>
        <time>2026-07-04T13:07:13+02:00</time>
      </trkpt>
      <trkpt lat="42.71881" lon="0.6277">
        <ele>1557.4004</ele>
        <time>2026-07-04T13:07:42+02:00</time>
      </trkpt>
      <trkpt lat="42.71878" lon="0.62765">
        <ele>1552.9004</ele>
        <time>2026-07-04T13:07:49+02:00</time>
      </trkpt>
      <trkpt lat="42.71873" lon="0.62763">
        <ele>1555</ele>
        <time>2026-07-04T13:07:57+02:00</time>
      </trkpt>
      <trkpt lat="42.71868" lon="0.6275">
        <ele>1548.9004</ele>
        <time>2026-07-04T13:08:08+02:00</time>
      </trkpt>
      <trkpt lat="42.71868" lon="0.62743">
        <ele>1548.9004</ele>
        <time>2026-07-04T13:08:13+02:00</time>
      </trkpt>
      <trkpt lat="42.71865" lon="0.62734">
        <ele>1544.7998</ele>
        <time>2026-07-04T13:08:20+02:00</time>
      </trkpt>
      <trkpt lat="42.71858" lon="0.6272">
        <ele>1543.1006</ele>
        <time>2026-07-04T13:08:38+02:00</time>
      </trkpt>
      <trkpt lat="42.71852" lon="0.62715">
        <ele>1539.2998</ele>
        <time>2026-07-04T13:08:50+02:00</time>
      </trkpt>
      <trkpt lat="42.71854" lon="0.62713">
        <ele>1539.2998</ele>
        <time>2026-07-04T13:09:13+02:00</time>
      </trkpt>
      <trkpt lat="42.71853" lon="0.62711">
        <ele>1539.2998</ele>
        <time>2026-07-04T13:09:16+02:00</time>
      </trkpt>
      <trkpt lat="42.71848" lon="0.62705">
        <ele>1539.1006</ele>
        <time>2026-07-04T13:09:33+02:00</time>
      </trkpt>
      <trkpt lat="42.71846" lon="0.62699">
        <ele>1535.4004</ele>
        <time>2026-07-04T13:09:39+02:00</time>
      </trkpt>
      <trkpt lat="42.71841" lon="0.62697">
        <ele>1539.2002</ele>
        <time>2026-07-04T13:09:48+02:00</time>
      </trkpt>
      <trkpt lat="42.71841" lon="0.6271">
        <ele>1546.4004</ele>
        <time>2026-07-04T13:10:00+02:00</time>
      </trkpt>
      <trkpt lat="42.71839" lon="0.6271">
        <ele>1546.4004</ele>
        <time>2026-07-04T13:10:03+02:00</time>
      </trkpt>
      <trkpt lat="42.71835" lon="0.627">
        <ele>1546.5</ele>
        <time>2026-07-04T13:10:18+02:00</time>
      </trkpt>
      <trkpt lat="42.71836" lon="0.62692">
        <ele>1543</ele>
        <time>2026-07-04T13:10:29+02:00</time>
      </trkpt>
      <trkpt lat="42.71834" lon="0.6269">
        <ele>1539.5</ele>
        <time>2026-07-04T13:10:31+02:00</time>
      </trkpt>
      <trkpt lat="42.7183" lon="0.62691">
        <ele>1543.6006</ele>
        <time>2026-07-04T13:10:36+02:00</time>
      </trkpt>
      <trkpt lat="42.71823" lon="0.62683">
        <ele>1547.6006</ele>
        <time>2026-07-04T13:10:47+02:00</time>
      </trkpt>
      <trkpt lat="42.71818" lon="0.62682">
        <ele>1551.6006</ele>
        <time>2026-07-04T13:10:56+02:00</time>
      </trkpt>
      <trkpt lat="42.71815" lon="0.62663">
        <ele>1541.2998</ele>
        <time>2026-07-04T13:11:17+02:00</time>
      </trkpt>
      <trkpt lat="42.71801" lon="0.62638">
        <ele>1542.7998</ele>
        <time>2026-07-04T13:11:42+02:00</time>
      </trkpt>
      <trkpt lat="42.71797" lon="0.62633">
        <ele>1542.7998</ele>
        <time>2026-07-04T13:11:47+02:00</time>
      </trkpt>
      <trkpt lat="42.71793" lon="0.62632">
        <ele>1546.9004</ele>
        <time>2026-07-04T13:11:56+02:00</time>
      </trkpt>
      <trkpt lat="42.71789" lon="0.62627">
        <ele>1543.2002</ele>
        <time>2026-07-04T13:12:02+02:00</time>
      </trkpt>
      <trkpt lat="42.71784" lon="0.62617">
        <ele>1543.2998</ele>
        <time>2026-07-04T13:12:22+02:00</time>
      </trkpt>
      <trkpt lat="42.71774" lon="0.6261">
        <ele>1547</ele>
        <time>2026-07-04T13:12:42+02:00</time>
      </trkpt>
      <trkpt lat="42.7176" lon="0.62589">
        <ele>1544.7998</ele>
        <time>2026-07-04T13:13:20+02:00</time>
      </trkpt>
      <trkpt lat="42.71755" lon="0.62589">
        <ele>1547.7998</ele>
        <time>2026-07-04T13:13:29+02:00</time>
      </trkpt>
      <trkpt lat="42.71751" lon="0.62581">
        <ele>1542.9004</ele>
        <time>2026-07-04T13:13:35+02:00</time>
      </trkpt>
      <trkpt lat="42.71749" lon="0.62582">
        <ele>1545.5</ele>
        <time>2026-07-04T13:13:37+02:00</time>
      </trkpt>
      <trkpt lat="42.71744" lon="0.62587">
        <ele>1548</ele>
        <time>2026-07-04T13:13:42+02:00</time>
      </trkpt>
      <trkpt lat="42.71739" lon="0.62585">
        <ele>1548</ele>
        <time>2026-07-04T13:13:50+02:00</time>
      </trkpt>
      <trkpt lat="42.71735" lon="0.62586">
        <ele>1550.2002</ele>
        <time>2026-07-04T13:13:55+02:00</time>
      </trkpt>
      <trkpt lat="42.71733" lon="0.62585">
        <ele>1550.2002</ele>
        <time>2026-07-04T13:14:02+02:00</time>
      </trkpt>
      <trkpt lat="42.71727" lon="0.62573">
        <ele>1546.7002</ele>
        <time>2026-07-04T13:14:21+02:00</time>
      </trkpt>
      <trkpt lat="42.71724" lon="0.62574">
        <ele>1548.5</ele>
        <time>2026-07-04T13:14:24+02:00</time>
      </trkpt>
      <trkpt lat="42.7172" lon="0.62583">
        <ele>1554</ele>
        <time>2026-07-04T13:14:31+02:00</time>
      </trkpt>
      <trkpt lat="42.71715" lon="0.62586">
        <ele>1555.7002</ele>
        <time>2026-07-04T13:14:39+02:00</time>
      </trkpt>
      <trkpt lat="42.71711" lon="0.62594">
        <ele>1562.6006</ele>
        <time>2026-07-04T13:14:47+02:00</time>
      </trkpt>
      <trkpt lat="42.71698" lon="0.62588">
        <ele>1564.9004</ele>
        <time>2026-07-04T13:15:03+02:00</time>
      </trkpt>
      <trkpt lat="42.7169" lon="0.62589">
        <ele>1565.7002</ele>
        <time>2026-07-04T13:15:13+02:00</time>
      </trkpt>
      <trkpt lat="42.71684" lon="0.62593">
        <ele>1566.2002</ele>
        <time>2026-07-04T13:15:21+02:00</time>
      </trkpt>
      <trkpt lat="42.71681" lon="0.62593">
        <ele>1566.5</ele>
        <time>2026-07-04T13:15:24+02:00</time>
      </trkpt>
      <trkpt lat="42.71674" lon="0.62596">
        <ele>1566.6006</ele>
        <time>2026-07-04T13:15:31+02:00</time>
      </trkpt>
      <trkpt lat="42.71661" lon="0.62589">
        <ele>1566.9004</ele>
        <time>2026-07-04T13:15:42+02:00</time>
      </trkpt>
      <trkpt lat="42.71653" lon="0.62588">
        <ele>1567.1006</ele>
        <time>2026-07-04T13:15:49+02:00</time>
      </trkpt>
      <trkpt lat="42.71647" lon="0.62592">
        <ele>1567.4004</ele>
        <time>2026-07-04T13:15:56+02:00</time>
      </trkpt>
      <trkpt lat="42.71642" lon="0.62599">
        <ele>1572.2998</ele>
        <time>2026-07-04T13:16:04+02:00</time>
      </trkpt>
      <trkpt lat="42.71636" lon="0.62603">
        <ele>1572.6006</ele>
        <time>2026-07-04T13:16:11+02:00</time>
      </trkpt>
      <trkpt lat="42.71633" lon="0.62607">
        <ele>1577.2002</ele>
        <time>2026-07-04T13:16:16+02:00</time>
      </trkpt>
      <trkpt lat="42.71627" lon="0.62607">
        <ele>1577.5</ele>
        <time>2026-07-04T13:16:22+02:00</time>
      </trkpt>
      <trkpt lat="42.71622" lon="0.62603">
        <ele>1573.4004</ele>
        <time>2026-07-04T13:16:28+02:00</time>
      </trkpt>
      <trkpt lat="42.71618" lon="0.62603">
        <ele>1574</ele>
        <time>2026-07-04T13:16:33+02:00</time>
      </trkpt>
      <trkpt lat="42.71614" lon="0.626">
        <ele>1574</ele>
        <time>2026-07-04T13:16:39+02:00</time>
      </trkpt>
      <trkpt lat="42.71608" lon="0.62603">
        <ele>1574.6006</ele>
        <time>2026-07-04T13:16:47+02:00</time>
      </trkpt>
      <trkpt lat="42.71606" lon="0.62603">
        <ele>1574.6006</ele>
        <time>2026-07-04T13:16:51+02:00</time>
      </trkpt>
      <trkpt lat="42.71601" lon="0.62597">
        <ele>1575.2002</ele>
        <time>2026-07-04T13:17:39+02:00</time>
      </trkpt>
      <trkpt lat="42.71596" lon="0.62597">
        <ele>1575.9004</ele>
        <time>2026-07-04T13:17:48+02:00</time>
      </trkpt>
      <trkpt lat="42.71589" lon="0.626">
        <ele>1576.6006</ele>
        <time>2026-07-04T13:18:05+02:00</time>
      </trkpt>
      <trkpt lat="42.71589" lon="0.62597">
        <ele>1576.6006</ele>
        <time>2026-07-04T13:18:40+02:00</time>
      </trkpt>
      <trkpt lat="42.71591" lon="0.62606">
        <ele>1580.9004</ele>
        <time>2026-07-04T13:19:22+02:00</time>
      </trkpt>
      <trkpt lat="42.71584" lon="0.62612">
        <ele>1581.6006</ele>
        <time>2026-07-04T13:19:47+02:00</time>
      </trkpt>
      <trkpt lat="42.71571" lon="0.62614">
        <ele>1587.4004</ele>
        <time>2026-07-04T13:20:01+02:00</time>
      </trkpt>
      <trkpt lat="42.71564" lon="0.62616">
        <ele>1588.5</ele>
        <time>2026-07-04T13:20:08+02:00</time>
      </trkpt>
      <trkpt lat="42.7156" lon="0.62622">
        <ele>1589.7002</ele>
        <time>2026-07-04T13:20:17+02:00</time>
      </trkpt>
      <trkpt lat="42.71556" lon="0.62619">
        <ele>1589.7002</ele>
        <time>2026-07-04T13:20:33+02:00</time>
      </trkpt>
      <trkpt lat="42.71556" lon="0.62615">
        <ele>1589.7002</ele>
        <time>2026-07-04T13:20:57+02:00</time>
      </trkpt>
      <trkpt lat="42.71554" lon="0.6261">
        <ele>1587.2998</ele>
        <time>2026-07-04T13:21:05+02:00</time>
      </trkpt>
      <trkpt lat="42.71552" lon="0.62609">
        <ele>1587.2998</ele>
        <time>2026-07-04T13:21:21+02:00</time>
      </trkpt>
      <trkpt lat="42.71559" lon="0.62608">
        <ele>1586</ele>
        <time>2026-07-04T13:21:42+02:00</time>
      </trkpt>
      <trkpt lat="42.71566" lon="0.62616">
        <ele>1588.5</ele>
        <time>2026-07-04T13:22:01+02:00</time>
      </trkpt>
      <trkpt lat="42.71568" lon="0.62611">
        <ele>1583.5</ele>
        <time>2026-07-04T13:22:08+02:00</time>
      </trkpt>
      <trkpt lat="42.71562" lon="0.62601">
        <ele>1580.9004</ele>
        <time>2026-07-04T13:22:19+02:00</time>
      </trkpt>
      <trkpt lat="42.71561" lon="0.62591">
        <ele>1578.6006</ele>
        <time>2026-07-04T13:22:24+02:00</time>
      </trkpt>
      <trkpt lat="42.71562" lon="0.6259">
        <ele>1577.2998</ele>
        <time>2026-07-04T13:22:33+02:00</time>
      </trkpt>
      <trkpt lat="42.71563" lon="0.62592">
        <ele>1577.2998</ele>
        <time>2026-07-04T13:22:36+02:00</time>
      </trkpt>
      <trkpt lat="42.7156" lon="0.62588">
        <ele>1578.6006</ele>
        <time>2026-07-04T13:22:49+02:00</time>
      </trkpt>
      <trkpt lat="42.71559" lon="0.62582">
        <ele>1575.2002</ele>
        <time>2026-07-04T13:22:56+02:00</time>
      </trkpt>
      <trkpt lat="42.71554" lon="0.62573">
        <ele>1574.2002</ele>
        <time>2026-07-04T13:23:06+02:00</time>
      </trkpt>
      <trkpt lat="42.71552" lon="0.62555">
        <ele>1569.7002</ele>
        <time>2026-07-04T13:23:24+02:00</time>
      </trkpt>
      <trkpt lat="42.71546" lon="0.62544">
        <ele>1567.7002</ele>
        <time>2026-07-04T13:23:38+02:00</time>
      </trkpt>
      <trkpt lat="42.71544" lon="0.62514">
        <ele>1561.9004</ele>
        <time>2026-07-04T13:24:00+02:00</time>
      </trkpt>
      <trkpt lat="42.71537" lon="0.62493">
        <ele>1561.7002</ele>
        <time>2026-07-04T13:24:16+02:00</time>
      </trkpt>
      <trkpt lat="42.71532" lon="0.62483">
        <ele>1565.4004</ele>
        <time>2026-07-04T13:24:44+02:00</time>
      </trkpt>
      <trkpt lat="42.71531" lon="0.62484">
        <ele>1565.4004</ele>
        <time>2026-07-04T13:24:52+02:00</time>
      </trkpt>
      <trkpt lat="42.71533" lon="0.62484">
        <ele>1565.4004</ele>
        <time>2026-07-04T13:25:26+02:00</time>
      </trkpt>
      <trkpt lat="42.71536" lon="0.62481">
        <ele>1565.4004</ele>
        <time>2026-07-04T13:25:48+02:00</time>
      </trkpt>
      <trkpt lat="42.71535" lon="0.62474">
        <ele>1565.5</ele>
        <time>2026-07-04T13:25:53+02:00</time>
      </trkpt>
      <trkpt lat="42.71542" lon="0.62473">
        <ele>1561.2998</ele>
        <time>2026-07-04T13:26:15+02:00</time>
      </trkpt>
      <trkpt lat="42.71541" lon="0.62468">
        <ele>1561.4004</ele>
        <time>2026-07-04T13:27:21+02:00</time>
      </trkpt>
      <trkpt lat="42.71531" lon="0.62451">
        <ele>1566.2002</ele>
        <time>2026-07-04T13:27:37+02:00</time>
      </trkpt>
      <trkpt lat="42.71528" lon="0.62437">
        <ele>1571.9004</ele>
        <time>2026-07-04T13:27:54+02:00</time>
      </trkpt>
      <trkpt lat="42.71528" lon="0.62432">
        <ele>1572.2998</ele>
        <time>2026-07-04T13:28:06+02:00</time>
      </trkpt>
      <trkpt lat="42.71531" lon="0.62432">
        <ele>1567.2998</ele>
        <time>2026-07-04T13:28:13+02:00</time>
      </trkpt>
      <trkpt lat="42.71535" lon="0.62427">
        <ele>1567.2998</ele>
        <time>2026-07-04T13:28:24+02:00</time>
      </trkpt>
      <trkpt lat="42.71533" lon="0.62421">
        <ele>1567.6006</ele>
        <time>2026-07-04T13:28:38+02:00</time>
      </trkpt>
      <trkpt lat="42.71534" lon="0.62417">
        <ele>1567.6006</ele>
        <time>2026-07-04T13:28:53+02:00</time>
      </trkpt>
      <trkpt lat="42.71532" lon="0.62417">
        <ele>1567.6006</ele>
        <time>2026-07-04T13:29:25+02:00</time>
      </trkpt>
      <trkpt lat="42.71533" lon="0.62415">
        <ele>1567.9004</ele>
        <time>2026-07-04T13:29:48+02:00</time>
      </trkpt>
      <trkpt lat="42.71531" lon="0.62413">
        <ele>1567.9004</ele>
        <time>2026-07-04T13:30:25+02:00</time>
      </trkpt>
      <trkpt lat="42.71532" lon="0.62408">
        <ele>1567.9004</ele>
        <time>2026-07-04T13:30:33+02:00</time>
      </trkpt>
      <trkpt lat="42.71528" lon="0.62406">
        <ele>1573.2998</ele>
        <time>2026-07-04T13:30:42+02:00</time>
      </trkpt>
      <trkpt lat="42.7153" lon="0.62406">
        <ele>1568.2002</ele>
        <time>2026-07-04T13:30:46+02:00</time>
      </trkpt>
      <trkpt lat="42.71535" lon="0.62401">
        <ele>1568.2002</ele>
        <time>2026-07-04T13:30:52+02:00</time>
      </trkpt>
      <trkpt lat="42.71535" lon="0.62394">
        <ele>1568.2998</ele>
        <time>2026-07-04T13:30:57+02:00</time>
      </trkpt>
      <trkpt lat="42.71532" lon="0.62376">
        <ele>1568.2002</ele>
        <time>2026-07-04T13:31:11+02:00</time>
      </trkpt>
      <trkpt lat="42.71536" lon="0.62367">
        <ele>1567.9004</ele>
        <time>2026-07-04T13:31:23+02:00</time>
      </trkpt>
      <trkpt lat="42.71536" lon="0.62364">
        <ele>1567.2002</ele>
        <time>2026-07-04T13:31:26+02:00</time>
      </trkpt>
      <trkpt lat="42.71539" lon="0.6235">
        <ele>1561</ele>
        <time>2026-07-04T13:31:43+02:00</time>
      </trkpt>
      <trkpt lat="42.71537" lon="0.6235">
        <ele>1561</ele>
        <time>2026-07-04T13:31:56+02:00</time>
      </trkpt>
      <trkpt lat="42.71534" lon="0.62346">
        <ele>1565</ele>
        <time>2026-07-04T13:32:03+02:00</time>
      </trkpt>
      <trkpt lat="42.71537" lon="0.62348">
        <ele>1561</ele>
        <time>2026-07-04T13:32:16+02:00</time>
      </trkpt>
      <trkpt lat="42.71538" lon="0.62344">
        <ele>1559.7998</ele>
        <time>2026-07-04T13:32:25+02:00</time>
      </trkpt>
      <trkpt lat="42.71535" lon="0.62329">
        <ele>1561.2002</ele>
        <time>2026-07-04T13:32:42+02:00</time>
      </trkpt>
      <trkpt lat="42.71516" lon="0.62281">
        <ele>1569</ele>
        <time>2026-07-04T13:33:40+02:00</time>
      </trkpt>
      <trkpt lat="42.71514" lon="0.62263">
        <ele>1568.7998</ele>
        <time>2026-07-04T13:33:52+02:00</time>
      </trkpt>
      <trkpt lat="42.71512" lon="0.62257">
        <ele>1569.5</ele>
        <time>2026-07-04T13:33:58+02:00</time>
      </trkpt>
      <trkpt lat="42.71516" lon="0.62228">
        <ele>1574.6006</ele>
        <time>2026-07-04T13:34:22+02:00</time>
      </trkpt>
      <trkpt lat="42.71512" lon="0.62213">
        <ele>1579</ele>
        <time>2026-07-04T13:34:33+02:00</time>
      </trkpt>
      <trkpt lat="42.71512" lon="0.62179">
        <ele>1586.2998</ele>
        <time>2026-07-04T13:35:04+02:00</time>
      </trkpt>
      <trkpt lat="42.71508" lon="0.62162">
        <ele>1593.7998</ele>
        <time>2026-07-04T13:35:24+02:00</time>
      </trkpt>
      <trkpt lat="42.71508" lon="0.62149">
        <ele>1595.5</ele>
        <time>2026-07-04T13:35:40+02:00</time>
      </trkpt>
      <trkpt lat="42.71504" lon="0.62127">
        <ele>1603.7998</ele>
        <time>2026-07-04T13:35:57+02:00</time>
      </trkpt>
      <trkpt lat="42.71502" lon="0.62123">
        <ele>1605.7002</ele>
        <time>2026-07-04T13:36:00+02:00</time>
      </trkpt>
      <trkpt lat="42.71506" lon="0.62109">
        <ele>1602.2002</ele>
        <time>2026-07-04T13:36:08+02:00</time>
      </trkpt>
      <trkpt lat="42.71505" lon="0.62101">
        <ele>1604.5</ele>
        <time>2026-07-04T13:36:13+02:00</time>
      </trkpt>
      <trkpt lat="42.71508" lon="0.62084">
        <ele>1609.5</ele>
        <time>2026-07-04T13:36:34+02:00</time>
      </trkpt>
      <trkpt lat="42.71512" lon="0.62075">
        <ele>1606.7002</ele>
        <time>2026-07-04T13:36:46+02:00</time>
      </trkpt>
      <trkpt lat="42.71512" lon="0.62069">
        <ele>1609.1006</ele>
        <time>2026-07-04T13:36:52+02:00</time>
      </trkpt>
      <trkpt lat="42.71514" lon="0.62061">
        <ele>1611.4004</ele>
        <time>2026-07-04T13:36:59+02:00</time>
      </trkpt>
      <trkpt lat="42.71512" lon="0.62048">
        <ele>1613.6006</ele>
        <time>2026-07-04T13:37:10+02:00</time>
      </trkpt>
      <trkpt lat="42.71514" lon="0.62042">
        <ele>1615.5</ele>
        <time>2026-07-04T13:37:16+02:00</time>
      </trkpt>
      <trkpt lat="42.7152" lon="0.62036">
        <ele>1612.2998</ele>
        <time>2026-07-04T13:37:24+02:00</time>
      </trkpt>
      <trkpt lat="42.71534" lon="0.62031">
        <ele>1603</ele>
        <time>2026-07-04T13:37:43+02:00</time>
      </trkpt>
      <trkpt lat="42.71537" lon="0.62024">
        <ele>1600.2998</ele>
        <time>2026-07-04T13:37:53+02:00</time>
      </trkpt>
      <trkpt lat="42.71543" lon="0.62022">
        <ele>1596.4004</ele>
        <time>2026-07-04T13:38:01+02:00</time>
      </trkpt>
      <trkpt lat="42.71549" lon="0.62016">
        <ele>1594</ele>
        <time>2026-07-04T13:38:08+02:00</time>
      </trkpt>
      <trkpt lat="42.71579" lon="0.61984">
        <ele>1585.2002</ele>
        <time>2026-07-04T13:38:48+02:00</time>
      </trkpt>
      <trkpt lat="42.71589" lon="0.61957">
        <ele>1581.2002</ele>
        <time>2026-07-04T13:39:09+02:00</time>
      </trkpt>
      <trkpt lat="42.71592" lon="0.61955">
        <ele>1581.2002</ele>
        <time>2026-07-04T13:39:12+02:00</time>
      </trkpt>
      <trkpt lat="42.71595" lon="0.61956">
        <ele>1577.9004</ele>
        <time>2026-07-04T13:39:15+02:00</time>
      </trkpt>
      <trkpt lat="42.71598" lon="0.61953">
        <ele>1578.5</ele>
        <time>2026-07-04T13:39:19+02:00</time>
      </trkpt>
      <trkpt lat="42.71604" lon="0.61952">
        <ele>1575</ele>
        <time>2026-07-04T13:39:36+02:00</time>
      </trkpt>
      <trkpt lat="42.7161" lon="0.61947">
        <ele>1571.5</ele>
        <time>2026-07-04T13:39:45+02:00</time>
      </trkpt>
      <trkpt lat="42.71611" lon="0.61943">
        <ele>1572</ele>
        <time>2026-07-04T13:39:49+02:00</time>
      </trkpt>
      <trkpt lat="42.7161" lon="0.61933">
        <ele>1572.5</ele>
        <time>2026-07-04T13:39:59+02:00</time>
      </trkpt>
      <trkpt lat="42.71603" lon="0.61921">
        <ele>1576.7002</ele>
        <time>2026-07-04T13:40:19+02:00</time>
      </trkpt>
      <trkpt lat="42.71594" lon="0.61917">
        <ele>1580.7998</ele>
        <time>2026-07-04T13:40:28+02:00</time>
      </trkpt>
      <trkpt lat="42.71593" lon="0.61906">
        <ele>1581.2998</ele>
        <time>2026-07-04T13:40:39+02:00</time>
      </trkpt>
      <trkpt lat="42.71591" lon="0.61906">
        <ele>1584.6006</ele>
        <time>2026-07-04T13:40:53+02:00</time>
      </trkpt>
      <trkpt lat="42.71593" lon="0.619">
        <ele>1585</ele>
        <time>2026-07-04T13:41:30+02:00</time>
      </trkpt>
      <trkpt lat="42.71593" lon="0.61882">
        <ele>1585.7002</ele>
        <time>2026-07-04T13:41:53+02:00</time>
      </trkpt>
      <trkpt lat="42.71586" lon="0.61851">
        <ele>1589.6006</ele>
        <time>2026-07-04T13:42:17+02:00</time>
      </trkpt>
      <trkpt lat="42.71588" lon="0.61842">
        <ele>1586.4004</ele>
        <time>2026-07-04T13:42:49+02:00</time>
      </trkpt>
      <trkpt lat="42.71585" lon="0.61839">
        <ele>1589.7002</ele>
        <time>2026-07-04T13:42:53+02:00</time>
      </trkpt>
      <trkpt lat="42.71576" lon="0.61791">
        <ele>1590.4004</ele>
        <time>2026-07-04T13:43:38+02:00</time>
      </trkpt>
      <trkpt lat="42.71568" lon="0.61767">
        <ele>1589.7002</ele>
        <time>2026-07-04T13:43:58+02:00</time>
      </trkpt>
      <trkpt lat="42.7155" lon="0.61754">
        <ele>1593.1006</ele>
        <time>2026-07-04T13:44:16+02:00</time>
      </trkpt>
      <trkpt lat="42.71545" lon="0.61753">
        <ele>1595</ele>
        <time>2026-07-04T13:44:19+02:00</time>
      </trkpt>
      <trkpt lat="42.7154" lon="0.61754">
        <ele>1596.6006</ele>
        <time>2026-07-04T13:44:22+02:00</time>
      </trkpt>
      <trkpt lat="42.71532" lon="0.6176">
        <ele>1599.9004</ele>
        <time>2026-07-04T13:44:27+02:00</time>
      </trkpt>
      <trkpt lat="42.7153" lon="0.61765">
        <ele>1601.5</ele>
        <time>2026-07-04T13:44:31+02:00</time>
      </trkpt>
      <trkpt lat="42.7153" lon="0.61762">
        <ele>1599.9004</ele>
        <time>2026-07-04T13:44:35+02:00</time>
      </trkpt>
      <trkpt lat="42.71527" lon="0.61756">
        <ele>1601.2002</ele>
        <time>2026-07-04T13:44:40+02:00</time>
      </trkpt>
      <trkpt lat="42.71523" lon="0.61754">
        <ele>1600.4004</ele>
        <time>2026-07-04T13:44:44+02:00</time>
      </trkpt>
      <trkpt lat="42.71521" lon="0.61752">
        <ele>1600.4004</ele>
        <time>2026-07-04T13:44:47+02:00</time>
      </trkpt>
      <trkpt lat="42.71521" lon="0.61745">
        <ele>1598.2998</ele>
        <time>2026-07-04T13:44:54+02:00</time>
      </trkpt>
      <trkpt lat="42.71518" lon="0.61738">
        <ele>1595.7998</ele>
        <time>2026-07-04T13:44:56+02:00</time>
      </trkpt>
      <trkpt lat="42.71505" lon="0.6172">
        <ele>1590.7002</ele>
        <time>2026-07-04T13:45:06+02:00</time>
      </trkpt>
      <trkpt lat="42.71504" lon="0.61726">
        <ele>1594.2998</ele>
        <time>2026-07-04T13:45:11+02:00</time>
      </trkpt>
      <trkpt lat="42.71511" lon="0.61736">
        <ele>1597.1006</ele>
        <time>2026-07-04T13:45:19+02:00</time>
      </trkpt>
      <trkpt lat="42.71511" lon="0.61743">
        <ele>1599.7998</ele>
        <time>2026-07-04T13:45:27+02:00</time>
      </trkpt>
      <trkpt lat="42.71504" lon="0.61739">
        <ele>1600.2002</ele>
        <time>2026-07-04T13:45:40+02:00</time>
      </trkpt>
      <trkpt lat="42.71499" lon="0.61726">
        <ele>1594.2998</ele>
        <time>2026-07-04T13:45:48+02:00</time>
      </trkpt>
      <trkpt lat="42.71476" lon="0.61725">
        <ele>1594.7998</ele>
        <time>2026-07-04T13:46:28+02:00</time>
      </trkpt>
      <trkpt lat="42.71463" lon="0.61728">
        <ele>1595.1006</ele>
        <time>2026-07-04T13:46:40+02:00</time>
      </trkpt>
      <trkpt lat="42.71458" lon="0.61733">
        <ele>1599</ele>
        <time>2026-07-04T13:46:46+02:00</time>
      </trkpt>
      <trkpt lat="42.71441" lon="0.61754">
        <ele>1607.2998</ele>
        <time>2026-07-04T13:47:26+02:00</time>
      </trkpt>
      <trkpt lat="42.7144" lon="0.61769">
        <ele>1614.2002</ele>
        <time>2026-07-04T13:47:34+02:00</time>
      </trkpt>
      <trkpt lat="42.71438" lon="0.61774">
        <ele>1617.5</ele>
        <time>2026-07-04T13:47:38+02:00</time>
      </trkpt>
      <trkpt lat="42.71432" lon="0.61774">
        <ele>1618.6006</ele>
        <time>2026-07-04T13:47:43+02:00</time>
      </trkpt>
      <trkpt lat="42.71425" lon="0.61767">
        <ele>1616.1006</ele>
        <time>2026-07-04T13:47:51+02:00</time>
      </trkpt>
      <trkpt lat="42.7142" lon="0.61765">
        <ele>1617.2002</ele>
        <time>2026-07-04T13:47:56+02:00</time>
      </trkpt>
      <trkpt lat="42.71413" lon="0.61778">
        <ele>1622.2002</ele>
        <time>2026-07-04T13:48:04+02:00</time>
      </trkpt>
      <trkpt lat="42.71402" lon="0.61789">
        <ele>1629</ele>
        <time>2026-07-04T13:48:14+02:00</time>
      </trkpt>
      <trkpt lat="42.71398" lon="0.61791">
        <ele>1633.2002</ele>
        <time>2026-07-04T13:48:23+02:00</time>
      </trkpt>
      <trkpt lat="42.71387" lon="0.61789">
        <ele>1632</ele>
        <time>2026-07-04T13:48:32+02:00</time>
      </trkpt>
      <trkpt lat="42.71379" lon="0.61785">
        <ele>1633.5</ele>
        <time>2026-07-04T13:48:42+02:00</time>
      </trkpt>
      <trkpt lat="42.71373" lon="0.61785">
        <ele>1635</ele>
        <time>2026-07-04T13:48:53+02:00</time>
      </trkpt>
      <trkpt lat="42.71359" lon="0.61774">
        <ele>1634.9004</ele>
        <time>2026-07-04T13:49:05+02:00</time>
      </trkpt>
      <trkpt lat="42.71357" lon="0.61776">
        <ele>1634.9004</ele>
        <time>2026-07-04T13:49:09+02:00</time>
      </trkpt>
      <trkpt lat="42.71347" lon="0.61778">
        <ele>1638.6006</ele>
        <time>2026-07-04T13:49:20+02:00</time>
      </trkpt>
      <trkpt lat="42.71327" lon="0.61736">
        <ele>1619</ele>
        <time>2026-07-04T13:49:48+02:00</time>
      </trkpt>
      <trkpt lat="42.71324" lon="0.61735">
        <ele>1619</ele>
        <time>2026-07-04T13:49:51+02:00</time>
      </trkpt>
      <trkpt lat="42.71321" lon="0.61745">
        <ele>1626.5</ele>
        <time>2026-07-04T13:49:58+02:00</time>
      </trkpt>
      <trkpt lat="42.71319" lon="0.61746">
        <ele>1626.5</ele>
        <time>2026-07-04T13:50:01+02:00</time>
      </trkpt>
      <trkpt lat="42.71317" lon="0.61744">
        <ele>1626.5</ele>
        <time>2026-07-04T13:50:03+02:00</time>
      </trkpt>
      <trkpt lat="42.7131" lon="0.61722">
        <ele>1618.2002</ele>
        <time>2026-07-04T13:50:18+02:00</time>
      </trkpt>
      <trkpt lat="42.71309" lon="0.6172">
        <ele>1615.2002</ele>
        <time>2026-07-04T13:50:20+02:00</time>
      </trkpt>
      <trkpt lat="42.71311" lon="0.61724">
        <ele>1618.2002</ele>
        <time>2026-07-04T13:50:26+02:00</time>
      </trkpt>
      <trkpt lat="42.71311" lon="0.6172">
        <ele>1613.1006</ele>
        <time>2026-07-04T13:50:37+02:00</time>
      </trkpt>
      <trkpt lat="42.71306" lon="0.61712">
        <ele>1610.4004</ele>
        <time>2026-07-04T13:50:54+02:00</time>
      </trkpt>
      <trkpt lat="42.71304" lon="0.61692">
        <ele>1601.2002</ele>
        <time>2026-07-04T13:51:08+02:00</time>
      </trkpt>
      <trkpt lat="42.71291" lon="0.61674">
        <ele>1597.7998</ele>
        <time>2026-07-04T13:51:29+02:00</time>
      </trkpt>
      <trkpt lat="42.71287" lon="0.61676">
        <ele>1600.1006</ele>
        <time>2026-07-04T13:51:35+02:00</time>
      </trkpt>
      <trkpt lat="42.71284" lon="0.61676">
        <ele>1602.2002</ele>
        <time>2026-07-04T13:51:41+02:00</time>
      </trkpt>
      <trkpt lat="42.71278" lon="0.6167">
        <ele>1602.2002</ele>
        <time>2026-07-04T13:51:47+02:00</time>
      </trkpt>
      <trkpt lat="42.71247" lon="0.61658">
        <ele>1603.2002</ele>
        <time>2026-07-04T13:52:26+02:00</time>
      </trkpt>
      <trkpt lat="42.71221" lon="0.61655">
        <ele>1606.7002</ele>
        <time>2026-07-04T13:53:19+02:00</time>
      </trkpt>
      <trkpt lat="42.71192" lon="0.61661">
        <ele>1605.7002</ele>
        <time>2026-07-04T13:53:55+02:00</time>
      </trkpt>
      <trkpt lat="42.71157" lon="0.61672">
        <ele>1603.7002</ele>
        <time>2026-07-04T13:54:38+02:00</time>
      </trkpt>
      <trkpt lat="42.71154" lon="0.61672">
        <ele>1603.7002</ele>
        <time>2026-07-04T13:54:42+02:00</time>
      </trkpt>
      <trkpt lat="42.71147" lon="0.61678">
        <ele>1601.9004</ele>
        <time>2026-07-04T13:54:54+02:00</time>
      </trkpt>
      <trkpt lat="42.71145" lon="0.61692">
        <ele>1605.5</ele>
        <time>2026-07-04T13:55:03+02:00</time>
      </trkpt>
      <trkpt lat="42.71142" lon="0.61696">
        <ele>1608.2998</ele>
        <time>2026-07-04T13:55:10+02:00</time>
      </trkpt>
      <trkpt lat="42.71138" lon="0.61682">
        <ele>1600.7998</ele>
        <time>2026-07-04T13:55:45+02:00</time>
      </trkpt>
      <trkpt lat="42.71135" lon="0.61683">
        <ele>1600.7998</ele>
        <time>2026-07-04T13:56:07+02:00</time>
      </trkpt>
      <trkpt lat="42.71137" lon="0.61685">
        <ele>1600.7998</ele>
        <time>2026-07-04T13:56:35+02:00</time>
      </trkpt>
      <trkpt lat="42.71139" lon="0.61685">
        <ele>1602.7998</ele>
        <time>2026-07-04T13:57:00+02:00</time>
      </trkpt>
      <trkpt lat="42.71138" lon="0.61684">
        <ele>1600.7998</ele>
        <time>2026-07-04T13:58:03+02:00</time>
      </trkpt>
      <trkpt lat="42.71134" lon="0.61695">
        <ele>1603.5</ele>
        <time>2026-07-04T13:58:13+02:00</time>
      </trkpt>
      <trkpt lat="42.71128" lon="0.61704">
        <ele>1607.1006</ele>
        <time>2026-07-04T13:58:24+02:00</time>
      </trkpt>
      <trkpt lat="42.71126" lon="0.61704">
        <ele>1605.2002</ele>
        <time>2026-07-04T13:58:26+02:00</time>
      </trkpt>
      <trkpt lat="42.71122" lon="0.61699">
        <ele>1602.2998</ele>
        <time>2026-07-04T13:58:33+02:00</time>
      </trkpt>
      <trkpt lat="42.71119" lon="0.61698">
        <ele>1600.6006</ele>
        <time>2026-07-04T13:58:37+02:00</time>
      </trkpt>
      <trkpt lat="42.7111" lon="0.61703">
        <ele>1599</ele>
        <time>2026-07-04T13:59:03+02:00</time>
      </trkpt>
      <trkpt lat="42.7111" lon="0.61699">
        <ele>1599</ele>
        <time>2026-07-04T13:59:23+02:00</time>
      </trkpt>
      <trkpt lat="42.71102" lon="0.61703">
        <ele>1597.5</ele>
        <time>2026-07-04T13:59:43+02:00</time>
      </trkpt>
      <trkpt lat="42.711" lon="0.61707">
        <ele>1598.7002</ele>
        <time>2026-07-04T14:00:07+02:00</time>
      </trkpt>
      <trkpt lat="42.71094" lon="0.61709">
        <ele>1597.4004</ele>
        <time>2026-07-04T14:00:49+02:00</time>
      </trkpt>
      <trkpt lat="42.71092" lon="0.61707">
        <ele>1597.4004</ele>
        <time>2026-07-04T14:01:46+02:00</time>
      </trkpt>
      <trkpt lat="42.71094" lon="0.61714">
        <ele>1599.9004</ele>
        <time>2026-07-04T14:03:02+02:00</time>
      </trkpt>
      <trkpt lat="42.7109" lon="0.61711">
        <ele>1597.4004</ele>
        <time>2026-07-04T14:05:02+02:00</time>
      </trkpt>
      <trkpt lat="42.71083" lon="0.61711">
        <ele>1596.1006</ele>
        <time>2026-07-04T14:05:31+02:00</time>
      </trkpt>
      <trkpt lat="42.71076" lon="0.61713">
        <ele>1597.2998</ele>
        <time>2026-07-04T14:05:43+02:00</time>
      </trkpt>
      <trkpt lat="42.71069" lon="0.6172">
        <ele>1595.2002</ele>
        <time>2026-07-04T14:05:53+02:00</time>
      </trkpt>
      <trkpt lat="42.71062" lon="0.61736">
        <ele>1598.7002</ele>
        <time>2026-07-04T14:06:40+02:00</time>
      </trkpt>
      <trkpt lat="42.71061" lon="0.61734">
        <ele>1598.7002</ele>
        <time>2026-07-04T14:07:34+02:00</time>
      </trkpt>
      <trkpt lat="42.71063" lon="0.61735">
        <ele>1598.7002</ele>
        <time>2026-07-04T14:08:06+02:00</time>
      </trkpt>
      <trkpt lat="42.71061" lon="0.61736">
        <ele>1598.7002</ele>
        <time>2026-07-04T14:09:12+02:00</time>
      </trkpt>
      <trkpt lat="42.71055" lon="0.61751">
        <ele>1602.1006</ele>
        <time>2026-07-04T14:10:26+02:00</time>
      </trkpt>
      <trkpt lat="42.71042" lon="0.61763">
        <ele>1602.6006</ele>
        <time>2026-07-04T14:10:54+02:00</time>
      </trkpt>
      <trkpt lat="42.7104" lon="0.61762">
        <ele>1602.6006</ele>
        <time>2026-07-04T14:11:03+02:00</time>
      </trkpt>
      <trkpt lat="42.71028" lon="0.61744">
        <ele>1598.6006</ele>
        <time>2026-07-04T14:11:29+02:00</time>
      </trkpt>
      <trkpt lat="42.71007" lon="0.61746">
        <ele>1598.7998</ele>
        <time>2026-07-04T14:11:58+02:00</time>
      </trkpt>
      <trkpt lat="42.71006" lon="0.61753">
        <ele>1600.4004</ele>
        <time>2026-07-04T14:12:39+02:00</time>
      </trkpt>
      <trkpt lat="42.71001" lon="0.61739">
        <ele>1599</ele>
        <time>2026-07-04T14:13:18+02:00</time>
      </trkpt>
      <trkpt lat="42.70995" lon="0.61733">
        <ele>1597.9004</ele>
        <time>2026-07-04T14:13:42+02:00</time>
      </trkpt>
      <trkpt lat="42.70991" lon="0.61724">
        <ele>1596.7002</ele>
        <time>2026-07-04T14:13:52+02:00</time>
      </trkpt>
      <trkpt lat="42.70983" lon="0.61714">
        <ele>1594.9004</ele>
        <time>2026-07-04T14:14:07+02:00</time>
      </trkpt>
      <trkpt lat="42.70985" lon="0.61708">
        <ele>1593.2002</ele>
        <time>2026-07-04T14:14:27+02:00</time>
      </trkpt>
      <trkpt lat="42.70983" lon="0.61681">
        <ele>1588.1006</ele>
        <time>2026-07-04T14:14:56+02:00</time>
      </trkpt>
      <trkpt lat="42.70983" lon="0.61671">
        <ele>1586.4004</ele>
        <time>2026-07-04T14:15:14+02:00</time>
      </trkpt>
      <trkpt lat="42.70982" lon="0.61667">
        <ele>1584.7002</ele>
        <time>2026-07-04T14:15:22+02:00</time>
      </trkpt>
      <trkpt lat="42.70979" lon="0.61663">
        <ele>1585.4004</ele>
        <time>2026-07-04T14:15:30+02:00</time>
      </trkpt>
      <trkpt lat="42.70979" lon="0.61658">
        <ele>1583.7002</ele>
        <time>2026-07-04T14:15:36+02:00</time>
      </trkpt>
      <trkpt lat="42.70983" lon="0.61641">
        <ele>1579.7002</ele>
        <time>2026-07-04T14:15:52+02:00</time>
      </trkpt>
      <trkpt lat="42.70984" lon="0.61629">
        <ele>1578.1006</ele>
        <time>2026-07-04T14:16:19+02:00</time>
      </trkpt>
      <trkpt lat="42.70986" lon="0.61624">
        <ele>1576.4004</ele>
        <time>2026-07-04T14:16:24+02:00</time>
      </trkpt>
      <trkpt lat="42.70986" lon="0.61617">
        <ele>1574.9004</ele>
        <time>2026-07-04T14:16:31+02:00</time>
      </trkpt>
      <trkpt lat="42.70991" lon="0.6161">
        <ele>1574.2998</ele>
        <time>2026-07-04T14:16:39+02:00</time>
      </trkpt>
      <trkpt lat="42.70989" lon="0.61601">
        <ele>1571.2998</ele>
        <time>2026-07-04T14:16:51+02:00</time>
      </trkpt>
      <trkpt lat="42.70994" lon="0.61582">
        <ele>1568.2002</ele>
        <time>2026-07-04T14:17:16+02:00</time>
      </trkpt>
      <trkpt lat="42.71001" lon="0.61574">
        <ele>1566.6006</ele>
        <time>2026-07-04T14:17:27+02:00</time>
      </trkpt>
      <trkpt lat="42.71004" lon="0.6156">
        <ele>1565.9004</ele>
        <time>2026-07-04T14:17:39+02:00</time>
      </trkpt>
      <trkpt lat="42.71007" lon="0.61553">
        <ele>1564.7998</ele>
        <time>2026-07-04T14:17:47+02:00</time>
      </trkpt>
      <trkpt lat="42.71019" lon="0.61542">
        <ele>1563.5</ele>
        <time>2026-07-04T14:17:58+02:00</time>
      </trkpt>
      <trkpt lat="42.71019" lon="0.61537">
        <ele>1562.7998</ele>
        <time>2026-07-04T14:18:03+02:00</time>
      </trkpt>
      <trkpt lat="42.71028" lon="0.61523">
        <ele>1559.2998</ele>
        <time>2026-07-04T14:18:32+02:00</time>
      </trkpt>
      <trkpt lat="42.71036" lon="0.61524">
        <ele>1559.4004</ele>
        <time>2026-07-04T14:19:03+02:00</time>
      </trkpt>
      <trkpt lat="42.71046" lon="0.61528">
        <ele>1558.1006</ele>
        <time>2026-07-04T14:19:17+02:00</time>
      </trkpt>
      <trkpt lat="42.71049" lon="0.61534">
        <ele>1559.1006</ele>
        <time>2026-07-04T14:19:55+02:00</time>
      </trkpt>
      <trkpt lat="42.71051" lon="0.61533">
        <ele>1558.7998</ele>
        <time>2026-07-04T14:20:01+02:00</time>
      </trkpt>
      <trkpt lat="42.71058" lon="0.61535">
        <ele>1558.6006</ele>
        <time>2026-07-04T14:20:14+02:00</time>
      </trkpt>
      <trkpt lat="42.71058" lon="0.61538">
        <ele>1558.6006</ele>
        <time>2026-07-04T14:21:38+02:00</time>
      </trkpt>
      <trkpt lat="42.71056" lon="0.61537">
        <ele>1558.7998</ele>
        <time>2026-07-04T14:21:47+02:00</time>
      </trkpt>
      <trkpt lat="42.71055" lon="0.61542">
        <ele>1560</ele>
        <time>2026-07-04T14:22:07+02:00</time>
      </trkpt>
      <trkpt lat="42.71057" lon="0.61549">
        <ele>1560</ele>
        <time>2026-07-04T14:22:20+02:00</time>
      </trkpt>
      <trkpt lat="42.71061" lon="0.61551">
        <ele>1561</ele>
        <time>2026-07-04T14:22:53+02:00</time>
      </trkpt>
      <trkpt lat="42.71064" lon="0.6155">
        <ele>1560.7998</ele>
        <time>2026-07-04T14:23:06+02:00</time>
      </trkpt>
      <trkpt lat="42.7107" lon="0.61556">
        <ele>1560.7002</ele>
        <time>2026-07-04T14:23:18+02:00</time>
      </trkpt>
      <trkpt lat="42.71076" lon="0.61554">
        <ele>1560.7002</ele>
        <time>2026-07-04T14:23:28+02:00</time>
      </trkpt>
      <trkpt lat="42.71087" lon="0.61563">
        <ele>1562.5</ele>
        <time>2026-07-04T14:23:48+02:00</time>
      </trkpt>
      <trkpt lat="42.71095" lon="0.61559">
        <ele>1562.7002</ele>
        <time>2026-07-04T14:24:09+02:00</time>
      </trkpt>
      <trkpt lat="42.71112" lon="0.61572">
        <ele>1565.9004</ele>
        <time>2026-07-04T14:24:31+02:00</time>
      </trkpt>
      <trkpt lat="42.71117" lon="0.61589">
        <ele>1570.7002</ele>
        <time>2026-07-04T14:24:45+02:00</time>
      </trkpt>
      <trkpt lat="42.71121" lon="0.61593">
        <ele>1573.7998</ele>
        <time>2026-07-04T14:24:50+02:00</time>
      </trkpt>
      <trkpt lat="42.71124" lon="0.61594">
        <ele>1573.7998</ele>
        <time>2026-07-04T14:24:54+02:00</time>
      </trkpt>
      <trkpt lat="42.71125" lon="0.61593">
        <ele>1573.7998</ele>
        <time>2026-07-04T14:24:56+02:00</time>
      </trkpt>
      <trkpt lat="42.71127" lon="0.61595">
        <ele>1574.6006</ele>
        <time>2026-07-04T14:25:00+02:00</time>
      </trkpt>
      <trkpt lat="42.71121" lon="0.61603">
        <ele>1576.2002</ele>
        <time>2026-07-04T14:25:15+02:00</time>
      </trkpt>
      <trkpt lat="42.71122" lon="0.61606">
        <ele>1576.2002</ele>
        <time>2026-07-04T14:25:24+02:00</time>
      </trkpt>
      <trkpt lat="42.71125" lon="0.61608">
        <ele>1576.2002</ele>
        <time>2026-07-04T14:25:38+02:00</time>
      </trkpt>
      <trkpt lat="42.71124" lon="0.61607">
        <ele>1576.2002</ele>
        <time>2026-07-04T14:25:44+02:00</time>
      </trkpt>
      <trkpt lat="42.71127" lon="0.61603">
        <ele>1577.1006</ele>
        <time>2026-07-04T14:25:56+02:00</time>
      </trkpt>
      <trkpt lat="42.71133" lon="0.61602">
        <ele>1577.1006</ele>
        <time>2026-07-04T14:26:04+02:00</time>
      </trkpt>
      <trkpt lat="42.71136" lon="0.61599">
        <ele>1575.5</ele>
        <time>2026-07-04T14:26:15+02:00</time>
      </trkpt>
      <trkpt lat="42.71139" lon="0.61602">
        <ele>1579</ele>
        <time>2026-07-04T14:26:29+02:00</time>
      </trkpt>
      <trkpt lat="42.71141" lon="0.61606">
        <ele>1579</ele>
        <time>2026-07-04T14:26:39+02:00</time>
      </trkpt>
      <trkpt lat="42.71143" lon="0.61604">
        <ele>1579</ele>
        <time>2026-07-04T14:26:51+02:00</time>
      </trkpt>
      <trkpt lat="42.71146" lon="0.61602">
        <ele>1580.2002</ele>
        <time>2026-07-04T14:27:15+02:00</time>
      </trkpt>
      <trkpt lat="42.71143" lon="0.61604">
        <ele>1579</ele>
        <time>2026-07-04T14:27:23+02:00</time>
      </trkpt>
      <trkpt lat="42.7113" lon="0.61603">
        <ele>1577.1006</ele>
        <time>2026-07-04T14:27:34+02:00</time>
      </trkpt>
      <trkpt lat="42.7113" lon="0.61598">
        <ele>1574.6006</ele>
        <time>2026-07-04T14:27:51+02:00</time>
      </trkpt>
      <trkpt lat="42.71129" lon="0.61597">
        <ele>1574.6006</ele>
        <time>2026-07-04T14:27:54+02:00</time>
      </trkpt>
      <trkpt lat="42.71124" lon="0.61598">
        <ele>1573.7998</ele>
        <time>2026-07-04T14:28:01+02:00</time>
      </trkpt>
      <trkpt lat="42.7112" lon="0.61602">
        <ele>1576.2002</ele>
        <time>2026-07-04T14:28:10+02:00</time>
      </trkpt>
      <trkpt lat="42.71121" lon="0.616">
        <ele>1573.7998</ele>
        <time>2026-07-04T14:28:15+02:00</time>
      </trkpt>
      <trkpt lat="42.71112" lon="0.61601">
        <ele>1574.6006</ele>
        <time>2026-07-04T14:28:39+02:00</time>
      </trkpt>
      <trkpt lat="42.71109" lon="0.61605">
        <ele>1574.6006</ele>
        <time>2026-07-04T14:28:48+02:00</time>
      </trkpt>
      <trkpt lat="42.71106" lon="0.61605">
        <ele>1573.9004</ele>
        <time>2026-07-04T14:28:55+02:00</time>
      </trkpt>
      <trkpt lat="42.71105" lon="0.61609">
        <ele>1573.9004</ele>
        <time>2026-07-04T14:28:58+02:00</time>
      </trkpt>
      <trkpt lat="42.71098" lon="0.61606">
        <ele>1573.2998</ele>
        <time>2026-07-04T14:29:12+02:00</time>
      </trkpt>
      <trkpt lat="42.71094" lon="0.61611">
        <ele>1574.9004</ele>
        <time>2026-07-04T14:29:19+02:00</time>
      </trkpt>
      <trkpt lat="42.71094" lon="0.61615">
        <ele>1574.9004</ele>
        <time>2026-07-04T14:29:23+02:00</time>
      </trkpt>
      <trkpt lat="42.71095" lon="0.61629">
        <ele>1579.7998</ele>
        <time>2026-07-04T14:29:38+02:00</time>
      </trkpt>
      <trkpt lat="42.71093" lon="0.61635">
        <ele>1581.1006</ele>
        <time>2026-07-04T14:29:45+02:00</time>
      </trkpt>
      <trkpt lat="42.71096" lon="0.61637">
        <ele>1581.7998</ele>
        <time>2026-07-04T14:29:52+02:00</time>
      </trkpt>
      <trkpt lat="42.71096" lon="0.61632">
        <ele>1579.7998</ele>
        <time>2026-07-04T14:31:02+02:00</time>
      </trkpt>
      <trkpt lat="42.71098" lon="0.61632">
        <ele>1579.7998</ele>
        <time>2026-07-04T14:31:33+02:00</time>
      </trkpt>
      <trkpt lat="42.711" lon="0.61636">
        <ele>1581.7998</ele>
        <time>2026-07-04T14:31:52+02:00</time>
      </trkpt>
      <trkpt lat="42.71098" lon="0.61631">
        <ele>1579.7998</ele>
        <time>2026-07-04T14:32:44+02:00</time>
      </trkpt>
      <trkpt lat="42.71098" lon="0.61634">
        <ele>1579.7998</ele>
        <time>2026-07-04T14:33:32+02:00</time>
      </trkpt>
      <trkpt lat="42.71103" lon="0.61628">
        <ele>1580.6006</ele>
        <time>2026-07-04T14:34:13+02:00</time>
      </trkpt>
      <trkpt lat="42.71104" lon="0.61628">
        <ele>1580.6006</ele>
        <time>2026-07-04T14:34:15+02:00</time>
      </trkpt>
      <trkpt lat="42.71101" lon="0.61634">
        <ele>1579.7998</ele>
        <time>2026-07-04T14:34:24+02:00</time>
      </trkpt>
      <trkpt lat="42.71098" lon="0.61633">
        <ele>1579.7998</ele>
        <time>2026-07-04T14:35:12+02:00</time>
      </trkpt>
      <trkpt lat="42.71098" lon="0.61636">
        <ele>1581.7998</ele>
        <time>2026-07-04T14:35:32+02:00</time>
      </trkpt>
      <trkpt lat="42.71099" lon="0.61632">
        <ele>1579.7998</ele>
        <time>2026-07-04T14:35:46+02:00</time>
      </trkpt>
      <trkpt lat="42.71102" lon="0.61632">
        <ele>1580.6006</ele>
        <time>2026-07-04T14:35:56+02:00</time>
      </trkpt>
      <trkpt lat="42.71099" lon="0.61629">
        <ele>1579.7998</ele>
        <time>2026-07-04T14:36:12+02:00</time>
      </trkpt>
      <trkpt lat="42.71101" lon="0.6163">
        <ele>1580.6006</ele>
        <time>2026-07-04T14:36:31+02:00</time>
      </trkpt>
      <trkpt lat="42.71101" lon="0.61633">
        <ele>1580.6006</ele>
        <time>2026-07-04T14:36:39+02:00</time>
      </trkpt>
      <trkpt lat="42.711" lon="0.61633">
        <ele>1579.7998</ele>
        <time>2026-07-04T14:36:53+02:00</time>
      </trkpt>
      <trkpt lat="42.71101" lon="0.61638">
        <ele>1581.7998</ele>
        <time>2026-07-04T14:37:18+02:00</time>
      </trkpt>
      <trkpt lat="42.711" lon="0.61641">
        <ele>1581.7998</ele>
        <time>2026-07-04T14:37:35+02:00</time>
      </trkpt>
      <trkpt lat="42.71098" lon="0.61638">
        <ele>1581.7998</ele>
        <time>2026-07-04T14:37:58+02:00</time>
      </trkpt>
      <trkpt lat="42.71099" lon="0.61637">
        <ele>1581.7998</ele>
        <time>2026-07-04T14:38:15+02:00</time>
      </trkpt>
      <trkpt lat="42.71101" lon="0.61639">
        <ele>1581.7998</ele>
        <time>2026-07-04T14:38:22+02:00</time>
      </trkpt>
      <trkpt lat="42.71101" lon="0.61638">
        <ele>1581.7998</ele>
        <time>2026-07-04T14:38:24+02:00</time>
      </trkpt>
      <trkpt lat="42.71105" lon="0.61639">
        <ele>1582.7002</ele>
        <time>2026-07-04T14:39:24+02:00</time>
      </trkpt>
      <trkpt lat="42.71106" lon="0.61645">
        <ele>1584.7998</ele>
        <time>2026-07-04T14:39:47+02:00</time>
      </trkpt>
      <trkpt lat="42.71104" lon="0.61639">
        <ele>1582.7002</ele>
        <time>2026-07-04T14:40:13+02:00</time>
      </trkpt>
      <trkpt lat="42.711" lon="0.61638">
        <ele>1581.7998</ele>
        <time>2026-07-04T14:41:03+02:00</time>
      </trkpt>
      <trkpt lat="42.71099" lon="0.6164">
        <ele>1581.7998</ele>
        <time>2026-07-04T14:41:40+02:00</time>
      </trkpt>
      <trkpt lat="42.71099" lon="0.61636">
        <ele>1581.7998</ele>
        <time>2026-07-04T14:42:12+02:00</time>
      </trkpt>
      <trkpt lat="42.71097" lon="0.61638">
        <ele>1581.7998</ele>
        <time>2026-07-04T14:42:32+02:00</time>
      </trkpt>
      <trkpt lat="42.711" lon="0.6164">
        <ele>1581.7998</ele>
        <time>2026-07-04T14:42:54+02:00</time>
      </trkpt>
      <trkpt lat="42.71102" lon="0.61643">
        <ele>1582.7002</ele>
        <time>2026-07-04T14:43:04+02:00</time>
      </trkpt>
      <trkpt lat="42.711" lon="0.61639">
        <ele>1581.7998</ele>
        <time>2026-07-04T14:43:17+02:00</time>
      </trkpt>
      <trkpt lat="42.71104" lon="0.61642">
        <ele>1582.7002</ele>
        <time>2026-07-04T14:43:36+02:00</time>
      </trkpt>
      <trkpt lat="42.71107" lon="0.61643">
        <ele>1582.7002</ele>
        <time>2026-07-04T14:43:40+02:00</time>
      </trkpt>
      <trkpt lat="42.71106" lon="0.6164">
        <ele>1582.7002</ele>
        <time>2026-07-04T14:43:48+02:00</time>
      </trkpt>
      <trkpt lat="42.71102" lon="0.61639">
        <ele>1582.7002</ele>
        <time>2026-07-04T14:44:02+02:00</time>
      </trkpt>
      <trkpt lat="42.71098" lon="0.61635">
        <ele>1579.7998</ele>
        <time>2026-07-04T14:44:38+02:00</time>
      </trkpt>
      <trkpt lat="42.71097" lon="0.61636">
        <ele>1581.7998</ele>
        <time>2026-07-04T14:45:17+02:00</time>
      </trkpt>
      <trkpt lat="42.71098" lon="0.61634">
        <ele>1579.7998</ele>
        <time>2026-07-04T14:45:58+02:00</time>
      </trkpt>
      <trkpt lat="42.71104" lon="0.61635">
        <ele>1582.7002</ele>
        <time>2026-07-04T14:46:16+02:00</time>
      </trkpt>
      <trkpt lat="42.71107" lon="0.61643">
        <ele>1582.7002</ele>
        <time>2026-07-04T14:46:30+02:00</time>
      </trkpt>
      <trkpt lat="42.7111" lon="0.61642">
        <ele>1583.7002</ele>
        <time>2026-07-04T14:46:38+02:00</time>
      </trkpt>
      <trkpt lat="42.71101" lon="0.61647">
        <ele>1584.7998</ele>
        <time>2026-07-04T14:47:42+02:00</time>
      </trkpt>
      <trkpt lat="42.71102" lon="0.61643">
        <ele>1582.7002</ele>
        <time>2026-07-04T14:47:50+02:00</time>
      </trkpt>
      <trkpt lat="42.71099" lon="0.61637">
        <ele>1581.7998</ele>
        <time>2026-07-04T14:48:42+02:00</time>
      </trkpt>
      <trkpt lat="42.71096" lon="0.61636">
        <ele>1581.7998</ele>
        <time>2026-07-04T14:49:11+02:00</time>
      </trkpt>
      <trkpt lat="42.71097" lon="0.61634">
        <ele>1579.7998</ele>
        <time>2026-07-04T14:50:16+02:00</time>
      </trkpt>
      <trkpt lat="42.711" lon="0.61635">
        <ele>1581.7998</ele>
        <time>2026-07-04T14:52:00+02:00</time>
      </trkpt>
      <trkpt lat="42.71097" lon="0.61638">
        <ele>1581.7998</ele>
        <time>2026-07-04T14:52:31+02:00</time>
      </trkpt>
      <trkpt lat="42.71099" lon="0.61635">
        <ele>1579.7998</ele>
        <time>2026-07-04T14:53:16+02:00</time>
      </trkpt>
      <trkpt lat="42.711" lon="0.61639">
        <ele>1581.7998</ele>
        <time>2026-07-04T14:53:36+02:00</time>
      </trkpt>
      <trkpt lat="42.71098" lon="0.61637">
        <ele>1581.7998</ele>
        <time>2026-07-04T14:53:47+02:00</time>
      </trkpt>
      <trkpt lat="42.71103" lon="0.61639">
        <ele>1582.7002</ele>
        <time>2026-07-04T14:54:53+02:00</time>
      </trkpt>
      <trkpt lat="42.71104" lon="0.61642">
        <ele>1582.7002</ele>
        <time>2026-07-04T14:55:02+02:00</time>
      </trkpt>
      <trkpt lat="42.71104" lon="0.6164">
        <ele>1582.7002</ele>
        <time>2026-07-04T14:55:11+02:00</time>
      </trkpt>
      <trkpt lat="42.71107" lon="0.61641">
        <ele>1582.7002</ele>
        <time>2026-07-04T14:55:22+02:00</time>
      </trkpt>
      <trkpt lat="42.71102" lon="0.61641">
        <ele>1582.7002</ele>
        <time>2026-07-04T14:55:53+02:00</time>
      </trkpt>
      <trkpt lat="42.71098" lon="0.61637">
        <ele>1581.7998</ele>
        <time>2026-07-04T14:57:02+02:00</time>
      </trkpt>
      <trkpt lat="42.711" lon="0.61636">
        <ele>1581.7998</ele>
        <time>2026-07-04T14:57:15+02:00</time>
      </trkpt>
      <trkpt lat="42.711" lon="0.61644">
        <ele>1583.7998</ele>
        <time>2026-07-04T14:58:24+02:00</time>
      </trkpt>
      <trkpt lat="42.711" lon="0.61636">
        <ele>1581.7998</ele>
        <time>2026-07-04T14:58:51+02:00</time>
      </trkpt>
      <trkpt lat="42.71101" lon="0.6164">
        <ele>1582.7002</ele>
        <time>2026-07-04T14:59:01+02:00</time>
      </trkpt>
      <trkpt lat="42.711" lon="0.61638">
        <ele>1581.7998</ele>
        <time>2026-07-04T14:59:17+02:00</time>
      </trkpt>
      <trkpt lat="42.71099" lon="0.61631">
        <ele>1579.7998</ele>
        <time>2026-07-04T15:00:12+02:00</time>
      </trkpt>
      <trkpt lat="42.71099" lon="0.61635">
        <ele>1581.7998</ele>
        <time>2026-07-04T15:01:03+02:00</time>
      </trkpt>
      <trkpt lat="42.71101" lon="0.61637">
        <ele>1582.7002</ele>
        <time>2026-07-04T15:01:12+02:00</time>
      </trkpt>
      <trkpt lat="42.711" lon="0.61635">
        <ele>1579.7998</ele>
        <time>2026-07-04T15:01:31+02:00</time>
      </trkpt>
      <trkpt lat="42.71099" lon="0.61638">
        <ele>1581.7998</ele>
        <time>2026-07-04T15:02:14+02:00</time>
      </trkpt>
      <trkpt lat="42.71101" lon="0.6164">
        <ele>1581.7998</ele>
        <time>2026-07-04T15:03:07+02:00</time>
      </trkpt>
      <trkpt lat="42.71105" lon="0.61641">
        <ele>1582.7002</ele>
        <time>2026-07-04T15:03:31+02:00</time>
      </trkpt>
      <trkpt lat="42.71108" lon="0.61646">
        <ele>1585.9004</ele>
        <time>2026-07-04T15:04:19+02:00</time>
      </trkpt>
      <trkpt lat="42.71106" lon="0.61652">
        <ele>1584.7998</ele>
        <time>2026-07-04T15:04:37+02:00</time>
      </trkpt>
      <trkpt lat="42.71105" lon="0.61644">
        <ele>1584.7998</ele>
        <time>2026-07-04T15:04:59+02:00</time>
      </trkpt>
      <trkpt lat="42.711" lon="0.61646">
        <ele>1583.7998</ele>
        <time>2026-07-04T15:05:27+02:00</time>
      </trkpt>
      <trkpt lat="42.71102" lon="0.6165">
        <ele>1584.7998</ele>
        <time>2026-07-04T15:05:39+02:00</time>
      </trkpt>
      <trkpt lat="42.71104" lon="0.61647">
        <ele>1584.7998</ele>
        <time>2026-07-04T15:05:50+02:00</time>
      </trkpt>
      <trkpt lat="42.71102" lon="0.61647">
        <ele>1584.7998</ele>
        <time>2026-07-04T15:06:33+02:00</time>
      </trkpt>
      <trkpt lat="42.71103" lon="0.61644">
        <ele>1584.7998</ele>
        <time>2026-07-04T15:06:44+02:00</time>
      </trkpt>
      <trkpt lat="42.71101" lon="0.61646">
        <ele>1583.7998</ele>
        <time>2026-07-04T15:06:57+02:00</time>
      </trkpt>
      <trkpt lat="42.7111" lon="0.61647">
        <ele>1585.9004</ele>
        <time>2026-07-04T15:07:20+02:00</time>
      </trkpt>
      <trkpt lat="42.71111" lon="0.61648">
        <ele>1585.9004</ele>
        <time>2026-07-04T15:07:30+02:00</time>
      </trkpt>
      <trkpt lat="42.71104" lon="0.61649">
        <ele>1584.7998</ele>
        <time>2026-07-04T15:08:19+02:00</time>
      </trkpt>
      <trkpt lat="42.71106" lon="0.61647">
        <ele>1584.7998</ele>
        <time>2026-07-04T15:08:39+02:00</time>
      </trkpt>
      <trkpt lat="42.71106" lon="0.61649">
        <ele>1584.7998</ele>
        <time>2026-07-04T15:09:39+02:00</time>
      </trkpt>
      <trkpt lat="42.711" lon="0.6165">
        <ele>1583.7998</ele>
        <time>2026-07-04T15:10:53+02:00</time>
      </trkpt>
      <trkpt lat="42.71103" lon="0.61647">
        <ele>1584.7998</ele>
        <time>2026-07-04T15:12:56+02:00</time>
      </trkpt>
      <trkpt lat="42.71099" lon="0.61649">
        <ele>1583.7998</ele>
        <time>2026-07-04T15:13:33+02:00</time>
      </trkpt>
      <trkpt lat="42.71105" lon="0.61645">
        <ele>1584.7998</ele>
        <time>2026-07-04T15:14:56+02:00</time>
      </trkpt>
      <trkpt lat="42.71109" lon="0.61647">
        <ele>1585.9004</ele>
        <time>2026-07-04T15:15:29+02:00</time>
      </trkpt>
      <trkpt lat="42.7111" lon="0.61646">
        <ele>1585.9004</ele>
        <time>2026-07-04T15:15:42+02:00</time>
      </trkpt>
      <trkpt lat="42.71105" lon="0.61651">
        <ele>1584.7998</ele>
        <time>2026-07-04T15:16:05+02:00</time>
      </trkpt>
      <trkpt lat="42.71109" lon="0.61653">
        <ele>1587.9004</ele>
        <time>2026-07-04T15:16:17+02:00</time>
      </trkpt>
      <trkpt lat="42.7111" lon="0.6165">
        <ele>1585.9004</ele>
        <time>2026-07-04T15:17:19+02:00</time>
      </trkpt>
      <trkpt lat="42.71109" lon="0.61647">
        <ele>1585.9004</ele>
        <time>2026-07-04T15:17:51+02:00</time>
      </trkpt>
      <trkpt lat="42.71112" lon="0.61646">
        <ele>1585.9004</ele>
        <time>2026-07-04T15:18:26+02:00</time>
      </trkpt>
      <trkpt lat="42.71106" lon="0.61647">
        <ele>1584.7998</ele>
        <time>2026-07-04T15:18:51+02:00</time>
      </trkpt>
      <trkpt lat="42.71102" lon="0.61644">
        <ele>1584.7998</ele>
        <time>2026-07-04T15:19:12+02:00</time>
      </trkpt>
      <trkpt lat="42.711" lon="0.61644">
        <ele>1583.7998</ele>
        <time>2026-07-04T15:19:38+02:00</time>
      </trkpt>
      <trkpt lat="42.71105" lon="0.61645">
        <ele>1584.7998</ele>
        <time>2026-07-04T15:19:47+02:00</time>
      </trkpt>
      <trkpt lat="42.71106" lon="0.61647">
        <ele>1584.7998</ele>
        <time>2026-07-04T15:19:49+02:00</time>
      </trkpt>
      <trkpt lat="42.7111" lon="0.61667">
        <ele>1589.7998</ele>
        <time>2026-07-04T15:20:02+02:00</time>
      </trkpt>
      <trkpt lat="42.71105" lon="0.61658">
        <ele>1586.7002</ele>
        <time>2026-07-04T15:20:08+02:00</time>
      </trkpt>
      <trkpt lat="42.71102" lon="0.61647">
        <ele>1584.7998</ele>
        <time>2026-07-04T15:20:16+02:00</time>
      </trkpt>
      <trkpt lat="42.7111" lon="0.61646">
        <ele>1585.9004</ele>
        <time>2026-07-04T15:20:39+02:00</time>
      </trkpt>
      <trkpt lat="42.71101" lon="0.61649">
        <ele>1584.7998</ele>
        <time>2026-07-04T15:22:11+02:00</time>
      </trkpt>
      <trkpt lat="42.71102" lon="0.61648">
        <ele>1584.7998</ele>
        <time>2026-07-04T15:22:17+02:00</time>
      </trkpt>
      <trkpt lat="42.711" lon="0.61647">
        <ele>1583.7998</ele>
        <time>2026-07-04T15:22:39+02:00</time>
      </trkpt>
      <trkpt lat="42.71108" lon="0.6165">
        <ele>1585.9004</ele>
        <time>2026-07-04T15:24:01+02:00</time>
      </trkpt>
      <trkpt lat="42.71097" lon="0.61645">
        <ele>1583.7998</ele>
        <time>2026-07-04T15:25:27+02:00</time>
      </trkpt>
      <trkpt lat="42.71099" lon="0.61647">
        <ele>1583.7998</ele>
        <time>2026-07-04T15:26:50+02:00</time>
      </trkpt>
      <trkpt lat="42.71106" lon="0.61646">
        <ele>1584.7998</ele>
        <time>2026-07-04T15:28:51+02:00</time>
      </trkpt>
      <trkpt lat="42.71108" lon="0.61648">
        <ele>1585.9004</ele>
        <time>2026-07-04T15:29:12+02:00</time>
      </trkpt>
      <trkpt lat="42.71094" lon="0.61647">
        <ele>1583.1006</ele>
        <time>2026-07-04T15:30:58+02:00</time>
      </trkpt>
      <trkpt lat="42.71096" lon="0.61648">
        <ele>1583.7998</ele>
        <time>2026-07-04T15:31:08+02:00</time>
      </trkpt>
      <trkpt lat="42.71101" lon="0.61642">
        <ele>1582.7002</ele>
        <time>2026-07-04T15:31:19+02:00</time>
      </trkpt>
      <trkpt lat="42.71106" lon="0.61643">
        <ele>1582.7002</ele>
        <time>2026-07-04T15:32:05+02:00</time>
      </trkpt>
      <trkpt lat="42.71103" lon="0.61646">
        <ele>1584.7998</ele>
        <time>2026-07-04T15:32:09+02:00</time>
      </trkpt>
      <trkpt lat="42.71103" lon="0.61649">
        <ele>1584.7998</ele>
        <time>2026-07-04T15:32:15+02:00</time>
      </trkpt>
      <trkpt lat="42.71101" lon="0.61648">
        <ele>1583.7998</ele>
        <time>2026-07-04T15:32:22+02:00</time>
      </trkpt>
      <trkpt lat="42.71105" lon="0.61649">
        <ele>1584.7998</ele>
        <time>2026-07-04T15:32:42+02:00</time>
      </trkpt>
      <trkpt lat="42.71102" lon="0.61647">
        <ele>1584.7998</ele>
        <time>2026-07-04T15:32:58+02:00</time>
      </trkpt>
      <trkpt lat="42.71106" lon="0.61647">
        <ele>1584.7998</ele>
        <time>2026-07-04T15:33:15+02:00</time>
      </trkpt>
      <trkpt lat="42.71105" lon="0.6165">
        <ele>1584.7998</ele>
        <time>2026-07-04T15:33:38+02:00</time>
      </trkpt>
      <trkpt lat="42.71103" lon="0.61648">
        <ele>1584.7998</ele>
        <time>2026-07-04T15:33:43+02:00</time>
      </trkpt>
      <trkpt lat="42.71099" lon="0.6165">
        <ele>1583.7998</ele>
        <time>2026-07-04T15:34:12+02:00</time>
      </trkpt>
      <trkpt lat="42.71099" lon="0.61643">
        <ele>1581.7998</ele>
        <time>2026-07-04T15:34:51+02:00</time>
      </trkpt>
      <trkpt lat="42.71102" lon="0.61647">
        <ele>1584.7998</ele>
        <time>2026-07-04T15:35:28+02:00</time>
      </trkpt>
      <trkpt lat="42.71101" lon="0.61645">
        <ele>1583.7998</ele>
        <time>2026-07-04T15:36:04+02:00</time>
      </trkpt>
      <trkpt lat="42.71101" lon="0.6164">
        <ele>1581.7998</ele>
        <time>2026-07-04T15:36:26+02:00</time>
      </trkpt>
      <trkpt lat="42.71096" lon="0.61641">
        <ele>1581.7998</ele>
        <time>2026-07-04T15:37:56+02:00</time>
      </trkpt>
      <trkpt lat="42.71095" lon="0.61654">
        <ele>1585.7002</ele>
        <time>2026-07-04T15:38:43+02:00</time>
      </trkpt>
      <trkpt lat="42.71101" lon="0.6165">
        <ele>1583.7998</ele>
        <time>2026-07-04T15:38:49+02:00</time>
      </trkpt>
      <trkpt lat="42.71102" lon="0.61647">
        <ele>1584.7998</ele>
        <time>2026-07-04T15:38:52+02:00</time>
      </trkpt>
      <trkpt lat="42.711" lon="0.61645">
        <ele>1583.7998</ele>
        <time>2026-07-04T15:39:08+02:00</time>
      </trkpt>
      <trkpt lat="42.71109" lon="0.61652">
        <ele>1587.9004</ele>
        <time>2026-07-04T15:39:20+02:00</time>
      </trkpt>
      <trkpt lat="42.71109" lon="0.61655">
        <ele>1587.9004</ele>
        <time>2026-07-04T15:39:23+02:00</time>
      </trkpt>
      <trkpt lat="42.71107" lon="0.61655">
        <ele>1586.7002</ele>
        <time>2026-07-04T15:39:27+02:00</time>
      </trkpt>
      <trkpt lat="42.71105" lon="0.61648">
        <ele>1584.7998</ele>
        <time>2026-07-04T15:40:16+02:00</time>
      </trkpt>
      <trkpt lat="42.71104" lon="0.61651">
        <ele>1584.7998</ele>
        <time>2026-07-04T15:40:33+02:00</time>
      </trkpt>
      <trkpt lat="42.71098" lon="0.61641">
        <ele>1581.7998</ele>
        <time>2026-07-04T15:41:49+02:00</time>
      </trkpt>
      <trkpt lat="42.71096" lon="0.61652">
        <ele>1583.7998</ele>
        <time>2026-07-04T15:41:58+02:00</time>
      </trkpt>
      <trkpt lat="42.71101" lon="0.61654">
        <ele>1585.7002</ele>
        <time>2026-07-04T15:42:09+02:00</time>
      </trkpt>
      <trkpt lat="42.71099" lon="0.6165">
        <ele>1583.7998</ele>
        <time>2026-07-04T15:42:40+02:00</time>
      </trkpt>
      <trkpt lat="42.711" lon="0.61648">
        <ele>1583.7998</ele>
        <time>2026-07-04T15:42:53+02:00</time>
      </trkpt>
      <trkpt lat="42.711" lon="0.61651">
        <ele>1583.7998</ele>
        <time>2026-07-04T15:43:03+02:00</time>
      </trkpt>
      <trkpt lat="42.71098" lon="0.61647">
        <ele>1583.7998</ele>
        <time>2026-07-04T15:43:22+02:00</time>
      </trkpt>
      <trkpt lat="42.71101" lon="0.61645">
        <ele>1583.7998</ele>
        <time>2026-07-04T15:43:33+02:00</time>
      </trkpt>
      <trkpt lat="42.711" lon="0.61647">
        <ele>1583.7998</ele>
        <time>2026-07-04T15:43:37+02:00</time>
      </trkpt>
      <trkpt lat="42.71102" lon="0.61644">
        <ele>1584.7998</ele>
        <time>2026-07-04T15:43:44+02:00</time>
      </trkpt>
      <trkpt lat="42.711" lon="0.61646">
        <ele>1583.7998</ele>
        <time>2026-07-04T15:43:48+02:00</time>
      </trkpt>
      <trkpt lat="42.71094" lon="0.61643">
        <ele>1581.1006</ele>
        <time>2026-07-04T15:43:55+02:00</time>
      </trkpt>
      <trkpt lat="42.71088" lon="0.61643">
        <ele>1580.4004</ele>
        <time>2026-07-04T15:44:03+02:00</time>
      </trkpt>
      <trkpt lat="42.71091" lon="0.61641">
        <ele>1581.1006</ele>
        <time>2026-07-04T15:44:37+02:00</time>
      </trkpt>
      <trkpt lat="42.7109" lon="0.61646">
        <ele>1583.1006</ele>
        <time>2026-07-04T15:45:24+02:00</time>
      </trkpt>
      <trkpt lat="42.71094" lon="0.61649">
        <ele>1583.1006</ele>
        <time>2026-07-04T15:46:31+02:00</time>
      </trkpt>
      <trkpt lat="42.7109" lon="0.61646">
        <ele>1583.1006</ele>
        <time>2026-07-04T15:47:32+02:00</time>
      </trkpt>
      <trkpt lat="42.71089" lon="0.61642">
        <ele>1581.1006</ele>
        <time>2026-07-04T15:49:51+02:00</time>
      </trkpt>
      <trkpt lat="42.71091" lon="0.61648">
        <ele>1583.1006</ele>
        <time>2026-07-04T15:52:12+02:00</time>
      </trkpt>
      <trkpt lat="42.71089" lon="0.61649">
        <ele>1583.1006</ele>
        <time>2026-07-04T15:52:41+02:00</time>
      </trkpt>
      <trkpt lat="42.71087" lon="0.61648">
        <ele>1582.4004</ele>
        <time>2026-07-04T15:53:00+02:00</time>
      </trkpt>
      <trkpt lat="42.71091" lon="0.61649">
        <ele>1583.1006</ele>
        <time>2026-07-04T15:54:16+02:00</time>
      </trkpt>
      <trkpt lat="42.71087" lon="0.61648">
        <ele>1582.4004</ele>
        <time>2026-07-04T15:55:42+02:00</time>
      </trkpt>
      <trkpt lat="42.71088" lon="0.61649">
        <ele>1582.4004</ele>
        <time>2026-07-04T15:55:43+02:00</time>
      </trkpt>
      <trkpt lat="42.71089" lon="0.61646">
        <ele>1583.1006</ele>
        <time>2026-07-04T15:55:58+02:00</time>
      </trkpt>
      <trkpt lat="42.7109" lon="0.61648">
        <ele>1583.1006</ele>
        <time>2026-07-04T15:56:44+02:00</time>
      </trkpt>
      <trkpt lat="42.7109" lon="0.61646">
        <ele>1583.1006</ele>
        <time>2026-07-04T15:57:41+02:00</time>
      </trkpt>
      <trkpt lat="42.71092" lon="0.61645">
        <ele>1583.1006</ele>
        <time>2026-07-04T15:58:48+02:00</time>
      </trkpt>
      <trkpt lat="42.71094" lon="0.61637">
        <ele>1581.1006</ele>
        <time>2026-07-04T15:59:14+02:00</time>
      </trkpt>
      <trkpt lat="42.71096" lon="0.61637">
        <ele>1581.7998</ele>
        <time>2026-07-04T16:00:10+02:00</time>
      </trkpt>
      <trkpt lat="42.71094" lon="0.61642">
        <ele>1581.1006</ele>
        <time>2026-07-04T16:00:40+02:00</time>
      </trkpt>
    </trkseg>
  </trk>
</gpx>